<?xml version="1.0" encoding="UTF-8"?><gpx xmlns="http://www.topografix.com/GPX/1/1" version="1.1" creator="iOrient"><trk><name>Квест "Код города"</name><trkseg><trkpt lat="56.8353073" lon="53.1270585"><time>2024-11-11T16:45:43.793</time></trkpt><trkpt lat="56.8353069" lon="53.1270531"><time>2024-11-11T16:45:44.943</time></trkpt><trkpt lat="56.8352695" lon="53.1270028"><time>2024-11-11T16:46:28.783</time></trkpt><trkpt lat="56.8352203" lon="53.1269940"><time>2024-11-11T16:46:33.767</time></trkpt><trkpt lat="56.8351696" lon="53.1269926"><time>2024-11-11T16:46:38.767</time></trkpt><trkpt lat="56.8351226" lon="53.1269847"><time>2024-11-11T16:46:43.767</time></trkpt><trkpt lat="56.8350748" lon="53.1269957"><time>2024-11-11T16:46:49.767</time></trkpt><trkpt lat="56.8350492" lon="53.1270639"><time>2024-11-11T16:46:53.767</time></trkpt><trkpt lat="56.8350128" lon="53.1271317"><time>2024-11-11T16:46:57.760</time></trkpt><trkpt lat="56.8349609" lon="53.1271493"><time>2024-11-11T16:47:02.770</time></trkpt><trkpt lat="56.8349170" lon="53.1271801"><time>2024-11-11T16:47:07.763</time></trkpt><trkpt lat="56.8348700" lon="53.1271922"><time>2024-11-11T16:47:12.773</time></trkpt><trkpt lat="56.8348169" lon="53.1271913"><time>2024-11-11T16:47:19.773</time></trkpt><trkpt lat="56.8347696" lon="53.1271809"><time>2024-11-11T16:47:34.780</time></trkpt><trkpt lat="56.8347159" lon="53.1271790"><time>2024-11-11T16:47:39.777</time></trkpt><trkpt lat="56.8346672" lon="53.1271878"><time>2024-11-11T16:47:44.773</time></trkpt><trkpt lat="56.8346233" lon="53.1272059"><time>2024-11-11T16:47:49.780</time></trkpt><trkpt lat="56.8346118" lon="53.1272043"><time>2024-11-11T16:47:50.773</time></trkpt><trkpt lat="56.8345631" lon="53.1272021"><time>2024-11-11T16:47:54.777</time></trkpt><trkpt lat="56.8345164" lon="53.1272042"><time>2024-11-11T16:47:58.787</time></trkpt><trkpt lat="56.8344664" lon="53.1272001"><time>2024-11-11T16:48:02.783</time></trkpt><trkpt lat="56.8344139" lon="53.1272081"><time>2024-11-11T16:48:06.777</time></trkpt><trkpt lat="56.8343638" lon="53.1272070"><time>2024-11-11T16:48:10.777</time></trkpt><trkpt lat="56.8343150" lon="53.1272088"><time>2024-11-11T16:48:14.787</time></trkpt><trkpt lat="56.8342600" lon="53.1272061"><time>2024-11-11T16:48:19.777</time></trkpt><trkpt lat="56.8342144" lon="53.1272028"><time>2024-11-11T16:48:23.777</time></trkpt><trkpt lat="56.8341683" lon="53.1271931"><time>2024-11-11T16:48:27.793</time></trkpt><trkpt lat="56.8341564" lon="53.1271936"><time>2024-11-11T16:48:28.787</time></trkpt><trkpt lat="56.8341031" lon="53.1271910"><time>2024-11-11T16:48:32.777</time></trkpt><trkpt lat="56.8340509" lon="53.1271937"><time>2024-11-11T16:48:36.777</time></trkpt><trkpt lat="56.8340036" lon="53.1271984"><time>2024-11-11T16:48:40.777</time></trkpt><trkpt lat="56.8339454" lon="53.1272029"><time>2024-11-11T16:48:44.770</time></trkpt><trkpt lat="56.8338940" lon="53.1272127"><time>2024-11-11T16:48:48.780</time></trkpt><trkpt lat="56.8338515" lon="53.1272452"><time>2024-11-11T16:48:52.787</time></trkpt><trkpt lat="56.8338095" lon="53.1272767"><time>2024-11-11T16:48:58.803</time></trkpt><trkpt lat="56.8337622" lon="53.1272891"><time>2024-11-11T16:49:55.780</time></trkpt><trkpt lat="56.8337136" lon="53.1273030"><time>2024-11-11T16:49:59.807</time></trkpt><trkpt lat="56.8336688" lon="53.1273127"><time>2024-11-11T16:50:03.783</time></trkpt><trkpt lat="56.8336182" lon="53.1273141"><time>2024-11-11T16:50:08.787</time></trkpt><trkpt lat="56.8335705" lon="53.1273199"><time>2024-11-11T16:50:13.777</time></trkpt><trkpt lat="56.8335162" lon="53.1273248"><time>2024-11-11T16:50:17.777</time></trkpt><trkpt lat="56.8334683" lon="53.1273385"><time>2024-11-11T16:50:21.783</time></trkpt><trkpt lat="56.8334143" lon="53.1273387"><time>2024-11-11T16:50:26.777</time></trkpt><trkpt lat="56.8333646" lon="53.1273330"><time>2024-11-11T16:50:30.770</time></trkpt><trkpt lat="56.8333239" lon="53.1273688"><time>2024-11-11T16:50:36.763</time></trkpt><trkpt lat="56.8332909" lon="53.1274380"><time>2024-11-11T16:50:45.767</time></trkpt><trkpt lat="56.8332578" lon="53.1275177"><time>2024-11-11T16:50:50.823</time></trkpt><trkpt lat="56.8332250" lon="53.1275865"><time>2024-11-11T16:50:54.767</time></trkpt><trkpt lat="56.8331960" lon="53.1276559"><time>2024-11-11T16:50:58.770</time></trkpt><trkpt lat="56.8331636" lon="53.1277357"><time>2024-11-11T16:51:03.773</time></trkpt><trkpt lat="56.8331290" lon="53.1277931"><time>2024-11-11T16:51:08.777</time></trkpt><trkpt lat="56.8330876" lon="53.1278493"><time>2024-11-11T16:51:14.777</time></trkpt><trkpt lat="56.8330541" lon="53.1279209"><time>2024-11-11T16:51:19.763</time></trkpt><trkpt lat="56.8330318" lon="53.1279968"><time>2024-11-11T16:51:23.767</time></trkpt><trkpt lat="56.8330038" lon="53.1280751"><time>2024-11-11T16:51:27.767</time></trkpt><trkpt lat="56.8329935" lon="53.1281600"><time>2024-11-11T16:51:31.767</time></trkpt><trkpt lat="56.8329698" lon="53.1282340"><time>2024-11-11T16:51:36.760</time></trkpt><trkpt lat="56.8329201" lon="53.1282444"><time>2024-11-11T16:51:40.777</time></trkpt><trkpt lat="56.8328669" lon="53.1282281"><time>2024-11-11T16:51:44.773</time></trkpt><trkpt lat="56.8328139" lon="53.1282363"><time>2024-11-11T16:51:50.777</time></trkpt><trkpt lat="56.8327621" lon="53.1282374"><time>2024-11-11T16:51:55.780</time></trkpt><trkpt lat="56.8327084" lon="53.1282456"><time>2024-11-11T16:52:00.790</time></trkpt><trkpt lat="56.8326639" lon="53.1282803"><time>2024-11-11T16:52:01.997</time></trkpt><trkpt lat="56.8326181" lon="53.1282433"><time>2024-11-11T16:52:06.773</time></trkpt><trkpt lat="56.8325729" lon="53.1282430"><time>2024-11-11T16:52:10.767</time></trkpt><trkpt lat="56.8325171" lon="53.1282354"><time>2024-11-11T16:52:15.767</time></trkpt><trkpt lat="56.8324706" lon="53.1282539"><time>2024-11-11T16:52:19.777</time></trkpt><trkpt lat="56.8324221" lon="53.1282750"><time>2024-11-11T16:52:23.767</time></trkpt><trkpt lat="56.8323767" lon="53.1283193"><time>2024-11-11T16:52:28.780</time></trkpt><trkpt lat="56.8323305" lon="53.1283593"><time>2024-11-11T16:52:32.757</time></trkpt><trkpt lat="56.8322824" lon="53.1283785"><time>2024-11-11T16:52:36.767</time></trkpt><trkpt lat="56.8322376" lon="53.1283983"><time>2024-11-11T16:52:40.770</time></trkpt><trkpt lat="56.8321933" lon="53.1284115"><time>2024-11-11T16:52:44.773</time></trkpt><trkpt lat="56.8321450" lon="53.1284288"><time>2024-11-11T16:52:48.777</time></trkpt><trkpt lat="56.8320993" lon="53.1284429"><time>2024-11-11T16:52:52.777</time></trkpt><trkpt lat="56.8320515" lon="53.1284611"><time>2024-11-11T16:52:57.793</time></trkpt><trkpt lat="56.8320057" lon="53.1284645"><time>2024-11-11T16:53:00.793</time></trkpt><trkpt lat="56.8319788" lon="53.1284948"><time>2024-11-11T16:53:01.920</time></trkpt><trkpt lat="56.8319300" lon="53.1284880"><time>2024-11-11T16:53:05.763</time></trkpt><trkpt lat="56.8318854" lon="53.1284977"><time>2024-11-11T16:53:09.817</time></trkpt><trkpt lat="56.8318307" lon="53.1285083"><time>2024-11-11T16:53:14.777</time></trkpt><trkpt lat="56.8317773" lon="53.1285182"><time>2024-11-11T16:53:19.787</time></trkpt><trkpt lat="56.8317309" lon="53.1285207"><time>2024-11-11T16:53:23.777</time></trkpt><trkpt lat="56.8316838" lon="53.1285360"><time>2024-11-11T16:53:27.780</time></trkpt><trkpt lat="56.8316836" lon="53.1286321"><time>2024-11-11T16:53:36.773</time></trkpt><trkpt lat="56.8316931" lon="53.1287228"><time>2024-11-11T16:53:42.780</time></trkpt><trkpt lat="56.8317002" lon="53.1288169"><time>2024-11-11T16:53:47.777</time></trkpt><trkpt lat="56.8317062" lon="53.1289060"><time>2024-11-11T16:53:51.793</time></trkpt><trkpt lat="56.8317013" lon="53.1289922"><time>2024-11-11T16:53:57.770</time></trkpt><trkpt lat="56.8317200" lon="53.1290685"><time>2024-11-11T16:54:03.783</time></trkpt><trkpt lat="56.8317264" lon="53.1291502"><time>2024-11-11T16:54:07.763</time></trkpt><trkpt lat="56.8317204" lon="53.1292378"><time>2024-11-11T16:54:11.773</time></trkpt><trkpt lat="56.8317142" lon="53.1293212"><time>2024-11-11T16:54:15.790</time></trkpt><trkpt lat="56.8316717" lon="53.1293765"><time>2024-11-11T16:54:20.767</time></trkpt><trkpt lat="56.8316193" lon="53.1294095"><time>2024-11-11T16:54:25.773</time></trkpt><trkpt lat="56.8315685" lon="53.1293867"><time>2024-11-11T16:54:29.777</time></trkpt><trkpt lat="56.8315217" lon="53.1294021"><time>2024-11-11T16:54:33.760</time></trkpt><trkpt lat="56.8314712" lon="53.1294142"><time>2024-11-11T16:54:38.773</time></trkpt><trkpt lat="56.8314214" lon="53.1294147"><time>2024-11-11T16:54:43.773</time></trkpt><trkpt lat="56.8313682" lon="53.1294337"><time>2024-11-11T16:54:47.770</time></trkpt><trkpt lat="56.8313237" lon="53.1294533"><time>2024-11-11T16:54:51.770</time></trkpt><trkpt lat="56.8312814" lon="53.1294874"><time>2024-11-11T16:54:55.790</time></trkpt><trkpt lat="56.8312961" lon="53.1294942"><time>2024-11-11T16:54:56.963</time></trkpt><trkpt lat="56.8312558" lon="53.1295756"><time>2024-11-11T16:55:00.807</time></trkpt><trkpt lat="56.8312227" lon="53.1296518"><time>2024-11-11T16:55:03.830</time></trkpt><trkpt lat="56.8311882" lon="53.1297254"><time>2024-11-11T16:55:07.777</time></trkpt><trkpt lat="56.8311558" lon="53.1298031"><time>2024-11-11T16:55:11.773</time></trkpt><trkpt lat="56.8311476" lon="53.1299013"><time>2024-11-11T16:55:15.813</time></trkpt><trkpt lat="56.8311446" lon="53.1299894"><time>2024-11-11T16:55:19.777</time></trkpt><trkpt lat="56.8311487" lon="53.1300851"><time>2024-11-11T16:55:23.777</time></trkpt><trkpt lat="56.8311086" lon="53.1301267"><time>2024-11-11T16:55:28.770</time></trkpt><trkpt lat="56.8310573" lon="53.1301179"><time>2024-11-11T16:55:33.773</time></trkpt><trkpt lat="56.8310094" lon="53.1301234"><time>2024-11-11T16:55:38.780</time></trkpt><trkpt lat="56.8310003" lon="53.1301437"><time>2024-11-11T16:55:39.910</time></trkpt><trkpt lat="56.8309540" lon="53.1301574"><time>2024-11-11T16:55:45.767</time></trkpt><trkpt lat="56.8309151" lon="53.1302138"><time>2024-11-11T16:55:49.777</time></trkpt><trkpt lat="56.8308864" lon="53.1302773"><time>2024-11-11T16:55:53.773</time></trkpt><trkpt lat="56.8308523" lon="53.1303461"><time>2024-11-11T16:55:58.813</time></trkpt><trkpt lat="56.8308165" lon="53.1304124"><time>2024-11-11T16:56:03.767</time></trkpt><trkpt lat="56.8307860" lon="53.1304905"><time>2024-11-11T16:56:09.817</time></trkpt><trkpt lat="56.8307860" lon="53.1304905"><time>2024-11-11T16:56:10.167</time></trkpt><trkpt lat="56.8307874" lon="53.1305907"><time>2024-11-11T16:56:13.790</time></trkpt><trkpt lat="56.8307884" lon="53.1306661"><time>2024-11-11T16:56:14.943</time></trkpt><trkpt lat="56.8308175" lon="53.1307417"><time>2024-11-11T16:56:20.773</time></trkpt><trkpt lat="56.8308269" lon="53.1308283"><time>2024-11-11T16:58:03.767</time></trkpt><trkpt lat="56.8308453" lon="53.1309064"><time>2024-11-11T16:58:08.763</time></trkpt><trkpt lat="56.8308152" lon="53.1309836"><time>2024-11-11T16:58:15.783</time></trkpt><trkpt lat="56.8307740" lon="53.1310189"><time>2024-11-11T16:58:20.777</time></trkpt><trkpt lat="56.8307292" lon="53.1310361"><time>2024-11-11T16:58:26.783</time></trkpt><trkpt lat="56.8306922" lon="53.1310926"><time>2024-11-11T16:58:54.817</time></trkpt><trkpt lat="56.8306408" lon="53.1310835"><time>2024-11-11T16:58:59.867</time></trkpt><trkpt lat="56.8305940" lon="53.1310851"><time>2024-11-11T16:59:04.777</time></trkpt><trkpt lat="56.8305482" lon="53.1310791"><time>2024-11-11T16:59:09.783</time></trkpt><trkpt lat="56.8305025" lon="53.1310802"><time>2024-11-11T16:59:14.790</time></trkpt><trkpt lat="56.8304560" lon="53.1310729"><time>2024-11-11T16:59:19.767</time></trkpt><trkpt lat="56.8304075" lon="53.1310697"><time>2024-11-11T16:59:24.763</time></trkpt><trkpt lat="56.8303618" lon="53.1310791"><time>2024-11-11T16:59:29.763</time></trkpt><trkpt lat="56.8303114" lon="53.1310875"><time>2024-11-11T16:59:34.763</time></trkpt><trkpt lat="56.8302599" lon="53.1310696"><time>2024-11-11T16:59:39.763</time></trkpt><trkpt lat="56.8302084" lon="53.1310788"><time>2024-11-11T16:59:44.770</time></trkpt><trkpt lat="56.8301631" lon="53.1310818"><time>2024-11-11T16:59:48.773</time></trkpt><trkpt lat="56.8301169" lon="53.1310990"><time>2024-11-11T16:59:52.760</time></trkpt><trkpt lat="56.8300611" lon="53.1311078"><time>2024-11-11T16:59:57.783</time></trkpt><trkpt lat="56.8300103" lon="53.1311279"><time>2024-11-11T17:00:02.767</time></trkpt><trkpt lat="56.8299577" lon="53.1311476"><time>2024-11-11T17:00:07.777</time></trkpt><trkpt lat="56.8299056" lon="53.1311802"><time>2024-11-11T17:00:12.783</time></trkpt><trkpt lat="56.8298546" lon="53.1312096"><time>2024-11-11T17:00:17.777</time></trkpt><trkpt lat="56.8298061" lon="53.1312268"><time>2024-11-11T17:00:23.780</time></trkpt><trkpt lat="56.8297550" lon="53.1312236"><time>2024-11-11T17:00:52.797</time></trkpt><trkpt lat="56.8297080" lon="53.1312238"><time>2024-11-11T17:00:56.787</time></trkpt><trkpt lat="56.8296591" lon="53.1312453"><time>2024-11-11T17:01:01.773</time></trkpt><trkpt lat="56.8296070" lon="53.1312375"><time>2024-11-11T17:01:06.763</time></trkpt><trkpt lat="56.8295885" lon="53.1311458"><time>2024-11-11T17:01:11.780</time></trkpt><trkpt lat="56.8295836" lon="53.1310611"><time>2024-11-11T17:01:15.767</time></trkpt><trkpt lat="56.8295740" lon="53.1309619"><time>2024-11-11T17:01:20.777</time></trkpt><trkpt lat="56.8295619" lon="53.1308647"><time>2024-11-11T17:01:24.780</time></trkpt><trkpt lat="56.8295544" lon="53.1307656"><time>2024-11-11T17:01:29.783</time></trkpt><trkpt lat="56.8295486" lon="53.1306790"><time>2024-11-11T17:01:33.787</time></trkpt><trkpt lat="56.8295482" lon="53.1305929"><time>2024-11-11T17:01:37.790</time></trkpt><trkpt lat="56.8295434" lon="53.1305010"><time>2024-11-11T17:01:41.783</time></trkpt><trkpt lat="56.8295444" lon="53.1304167"><time>2024-11-11T17:01:45.783</time></trkpt><trkpt lat="56.8295397" lon="53.1303331"><time>2024-11-11T17:01:49.787</time></trkpt><trkpt lat="56.8295363" lon="53.1302451"><time>2024-11-11T17:01:53.783</time></trkpt><trkpt lat="56.8295386" lon="53.1301630"><time>2024-11-11T17:01:57.783</time></trkpt><trkpt lat="56.8295385" lon="53.1300663"><time>2024-11-11T17:02:02.780</time></trkpt><trkpt lat="56.8295240" lon="53.1299760"><time>2024-11-11T17:02:07.790</time></trkpt><trkpt lat="56.8295181" lon="53.1298735"><time>2024-11-11T17:02:12.787</time></trkpt><trkpt lat="56.8295149" lon="53.1297883"><time>2024-11-11T17:02:16.797</time></trkpt><trkpt lat="56.8295041" lon="53.1297061"><time>2024-11-11T17:02:20.783</time></trkpt><trkpt lat="56.8295084" lon="53.1296035"><time>2024-11-11T17:02:25.777</time></trkpt><trkpt lat="56.8295090" lon="53.1295184"><time>2024-11-11T17:02:29.777</time></trkpt><trkpt lat="56.8295043" lon="53.1294368"><time>2024-11-11T17:02:33.780</time></trkpt><trkpt lat="56.8295094" lon="53.1293357"><time>2024-11-11T17:02:38.783</time></trkpt><trkpt lat="56.8295032" lon="53.1292471"><time>2024-11-11T17:02:43.807</time></trkpt><trkpt lat="56.8294576" lon="53.1292106"><time>2024-11-11T17:02:48.770</time></trkpt><trkpt lat="56.8294164" lon="53.1291583"><time>2024-11-11T17:02:53.773</time></trkpt><trkpt lat="56.8293766" lon="53.1291143"><time>2024-11-11T17:02:57.863</time></trkpt><trkpt lat="56.8293322" lon="53.1290648"><time>2024-11-11T17:03:01.777</time></trkpt><trkpt lat="56.8292864" lon="53.1290086"><time>2024-11-11T17:03:06.807</time></trkpt><trkpt lat="56.8292492" lon="53.1289551"><time>2024-11-11T17:03:10.807</time></trkpt><trkpt lat="56.8292023" lon="53.1289379"><time>2024-11-11T17:03:14.793</time></trkpt><trkpt lat="56.8291497" lon="53.1289487"><time>2024-11-11T17:03:18.777</time></trkpt><trkpt lat="56.8290965" lon="53.1289430"><time>2024-11-11T17:03:22.777</time></trkpt><trkpt lat="56.8290427" lon="53.1289460"><time>2024-11-11T17:03:26.820</time></trkpt><trkpt lat="56.8289926" lon="53.1289471"><time>2024-11-11T17:03:30.767</time></trkpt><trkpt lat="56.8289458" lon="53.1289458"><time>2024-11-11T17:03:34.847</time></trkpt><trkpt lat="56.8289008" lon="53.1289550"><time>2024-11-11T17:03:38.813</time></trkpt><trkpt lat="56.8288488" lon="53.1289581"><time>2024-11-11T17:03:43.860</time></trkpt><trkpt lat="56.8288035" lon="53.1289601"><time>2024-11-11T17:03:47.810</time></trkpt><trkpt lat="56.8287572" lon="53.1289642"><time>2024-11-11T17:03:51.773</time></trkpt><trkpt lat="56.8287019" lon="53.1289644"><time>2024-11-11T17:03:56.850</time></trkpt><trkpt lat="56.8286465" lon="53.1289670"><time>2024-11-11T17:04:01.777</time></trkpt><trkpt lat="56.8285920" lon="53.1289798"><time>2024-11-11T17:04:06.773</time></trkpt><trkpt lat="56.8285422" lon="53.1289894"><time>2024-11-11T17:04:10.773</time></trkpt><trkpt lat="56.8284935" lon="53.1289948"><time>2024-11-11T17:04:14.850</time></trkpt><trkpt lat="56.8284365" lon="53.1290031"><time>2024-11-11T17:04:19.857</time></trkpt><trkpt lat="56.8283891" lon="53.1290101"><time>2024-11-11T17:04:23.813</time></trkpt><trkpt lat="56.8283437" lon="53.1290155"><time>2024-11-11T17:04:27.800</time></trkpt><trkpt lat="56.8282976" lon="53.1290265"><time>2024-11-11T17:04:31.820</time></trkpt><trkpt lat="56.8282527" lon="53.1290373"><time>2024-11-11T17:04:35.820</time></trkpt><trkpt lat="56.8282048" lon="53.1290450"><time>2024-11-11T17:04:39.810</time></trkpt><trkpt lat="56.8281576" lon="53.1290636"><time>2024-11-11T17:04:43.817</time></trkpt><trkpt lat="56.8281106" lon="53.1290838"><time>2024-11-11T17:04:47.810</time></trkpt><trkpt lat="56.8280634" lon="53.1290972"><time>2024-11-11T17:04:51.770</time></trkpt><trkpt lat="56.8280153" lon="53.1290965"><time>2024-11-11T17:04:55.777</time></trkpt><trkpt lat="56.8279696" lon="53.1291059"><time>2024-11-11T17:04:59.777</time></trkpt><trkpt lat="56.8279168" lon="53.1291160"><time>2024-11-11T17:05:04.777</time></trkpt><trkpt lat="56.8278709" lon="53.1291310"><time>2024-11-11T17:05:08.773</time></trkpt><trkpt lat="56.8278246" lon="53.1291366"><time>2024-11-11T17:05:12.780</time></trkpt><trkpt lat="56.8277696" lon="53.1291409"><time>2024-11-11T17:05:16.780</time></trkpt><trkpt lat="56.8277147" lon="53.1291480"><time>2024-11-11T17:05:21.777</time></trkpt><trkpt lat="56.8276594" lon="53.1291491"><time>2024-11-11T17:05:26.783</time></trkpt><trkpt lat="56.8276103" lon="53.1291960"><time>2024-11-11T17:05:31.780</time></trkpt><trkpt lat="56.8275715" lon="53.1292449"><time>2024-11-11T17:05:35.767</time></trkpt><trkpt lat="56.8275305" lon="53.1293111"><time>2024-11-11T17:05:40.783</time></trkpt><trkpt lat="56.8274929" lon="53.1293846"><time>2024-11-11T17:05:45.783</time></trkpt><trkpt lat="56.8274555" lon="53.1294472"><time>2024-11-11T17:05:50.767</time></trkpt><trkpt lat="56.8274201" lon="53.1295260"><time>2024-11-11T17:05:55.763</time></trkpt><trkpt lat="56.8273821" lon="53.1295958"><time>2024-11-11T17:06:01.763</time></trkpt><trkpt lat="56.8273410" lon="53.1296645"><time>2024-11-11T17:06:06.767</time></trkpt><trkpt lat="56.8273038" lon="53.1297136"><time>2024-11-11T17:06:10.800</time></trkpt><trkpt lat="56.8272711" lon="53.1297782"><time>2024-11-11T17:06:15.773</time></trkpt><trkpt lat="56.8272377" lon="53.1298384"><time>2024-11-11T17:06:20.770</time></trkpt><trkpt lat="56.8271914" lon="53.1298826"><time>2024-11-11T17:06:24.853</time></trkpt><trkpt lat="56.8271491" lon="53.1299162"><time>2024-11-11T17:06:29.770</time></trkpt><trkpt lat="56.8271023" lon="53.1299359"><time>2024-11-11T17:06:34.770</time></trkpt><trkpt lat="56.8270538" lon="53.1299410"><time>2024-11-11T17:06:39.777</time></trkpt><trkpt lat="56.8270072" lon="53.1299445"><time>2024-11-11T17:06:43.787</time></trkpt><trkpt lat="56.8269622" lon="53.1299504"><time>2024-11-11T17:06:47.780</time></trkpt><trkpt lat="56.8269123" lon="53.1299755"><time>2024-11-11T17:06:52.780</time></trkpt><trkpt lat="56.8268601" lon="53.1299889"><time>2024-11-11T17:06:57.777</time></trkpt><trkpt lat="56.8268099" lon="53.1300067"><time>2024-11-11T17:07:02.777</time></trkpt><trkpt lat="56.8267603" lon="53.1300108"><time>2024-11-11T17:07:07.773</time></trkpt><trkpt lat="56.8267065" lon="53.1300252"><time>2024-11-11T17:07:13.773</time></trkpt><trkpt lat="56.8266583" lon="53.1300528"><time>2024-11-11T17:07:17.777</time></trkpt><trkpt lat="56.8266111" lon="53.1300674"><time>2024-11-11T17:07:21.787</time></trkpt><trkpt lat="56.8265754" lon="53.1301022"><time>2024-11-11T17:07:22.933</time></trkpt><trkpt lat="56.8265300" lon="53.1301243"><time>2024-11-11T17:07:26.770</time></trkpt><trkpt lat="56.8264792" lon="53.1301590"><time>2024-11-11T17:07:30.773</time></trkpt><trkpt lat="56.8264352" lon="53.1302037"><time>2024-11-11T17:07:34.773</time></trkpt><trkpt lat="56.8263940" lon="53.1302564"><time>2024-11-11T17:07:38.770</time></trkpt><trkpt lat="56.8263531" lon="53.1303075"><time>2024-11-11T17:07:42.770</time></trkpt><trkpt lat="56.8263154" lon="53.1303532"><time>2024-11-11T17:07:46.770</time></trkpt><trkpt lat="56.8262764" lon="53.1304046"><time>2024-11-11T17:07:50.773</time></trkpt><trkpt lat="56.8262387" lon="53.1304636"><time>2024-11-11T17:07:54.773</time></trkpt><trkpt lat="56.8262019" lon="53.1305196"><time>2024-11-11T17:07:58.810</time></trkpt><trkpt lat="56.8261573" lon="53.1305806"><time>2024-11-11T17:08:02.757</time></trkpt><trkpt lat="56.8261099" lon="53.1306458"><time>2024-11-11T17:08:06.797</time></trkpt><trkpt lat="56.8260656" lon="53.1307077"><time>2024-11-11T17:08:10.813</time></trkpt><trkpt lat="56.8260186" lon="53.1307574"><time>2024-11-11T17:08:14.757</time></trkpt><trkpt lat="56.8259659" lon="53.1307857"><time>2024-11-11T17:08:18.763</time></trkpt><trkpt lat="56.8259114" lon="53.1308176"><time>2024-11-11T17:08:22.800</time></trkpt><trkpt lat="56.8258563" lon="53.1308471"><time>2024-11-11T17:08:26.803</time></trkpt><trkpt lat="56.8258036" lon="53.1308944"><time>2024-11-11T17:08:30.847</time></trkpt><trkpt lat="56.8258010" lon="53.1309204"><time>2024-11-11T17:08:32.033</time></trkpt><trkpt lat="56.8257605" lon="53.1309920"><time>2024-11-11T17:08:35.767</time></trkpt><trkpt lat="56.8257261" lon="53.1310627"><time>2024-11-11T17:08:39.770</time></trkpt><trkpt lat="56.8256846" lon="53.1311271"><time>2024-11-11T17:08:43.817</time></trkpt><trkpt lat="56.8256293" lon="53.1311397"><time>2024-11-11T17:08:48.833</time></trkpt><trkpt lat="56.8255802" lon="53.1311775"><time>2024-11-11T17:08:53.827</time></trkpt><trkpt lat="56.8255318" lon="53.1311895"><time>2024-11-11T17:08:58.820</time></trkpt><trkpt lat="56.8254795" lon="53.1311990"><time>2024-11-11T17:09:03.817</time></trkpt><trkpt lat="56.8254258" lon="53.1312050"><time>2024-11-11T17:09:08.777</time></trkpt><trkpt lat="56.8253760" lon="53.1312272"><time>2024-11-11T17:09:13.827</time></trkpt><trkpt lat="56.8253275" lon="53.1312633"><time>2024-11-11T17:09:18.767</time></trkpt><trkpt lat="56.8252735" lon="53.1312627"><time>2024-11-11T17:09:23.773</time></trkpt><trkpt lat="56.8252299" lon="53.1313047"><time>2024-11-11T17:09:28.793</time></trkpt><trkpt lat="56.8252329" lon="53.1313857"><time>2024-11-11T17:09:29.937</time></trkpt><trkpt lat="56.8252229" lon="53.1314668"><time>2024-11-11T17:09:38.783</time></trkpt><trkpt lat="56.8252311" lon="53.1315590"><time>2024-11-11T17:09:42.770</time></trkpt><trkpt lat="56.8252373" lon="53.1316431"><time>2024-11-11T17:09:46.790</time></trkpt><trkpt lat="56.8252294" lon="53.1317254"><time>2024-11-11T17:09:50.787</time></trkpt><trkpt lat="56.8252472" lon="53.1318196"><time>2024-11-11T17:09:55.797</time></trkpt><trkpt lat="56.8252472" lon="53.1318196"><time>2024-11-11T17:09:55.893</time></trkpt><trkpt lat="56.8252378" lon="53.1319098"><time>2024-11-11T17:10:08.787</time></trkpt><trkpt lat="56.8252394" lon="53.1319562"><time>2024-11-11T17:10:09.943</time></trkpt><trkpt lat="56.8252546" lon="53.1318730"><time>2024-11-11T17:10:30.807</time></trkpt><trkpt lat="56.8252132" lon="53.1318396"><time>2024-11-11T17:10:53.757</time></trkpt><trkpt lat="56.8251677" lon="53.1318541"><time>2024-11-11T17:10:58.760</time></trkpt><trkpt lat="56.8251194" lon="53.1318712"><time>2024-11-11T17:11:03.757</time></trkpt><trkpt lat="56.8250736" lon="53.1318949"><time>2024-11-11T17:11:10.763</time></trkpt><trkpt lat="56.8250265" lon="53.1318930"><time>2024-11-11T17:11:18.790</time></trkpt><trkpt lat="56.8249810" lon="53.1319142"><time>2024-11-11T17:11:22.770</time></trkpt><trkpt lat="56.8249309" lon="53.1319288"><time>2024-11-11T17:11:26.800</time></trkpt><trkpt lat="56.8248743" lon="53.1319321"><time>2024-11-11T17:11:31.800</time></trkpt><trkpt lat="56.8248267" lon="53.1319391"><time>2024-11-11T17:11:35.797</time></trkpt><trkpt lat="56.8247799" lon="53.1319473"><time>2024-11-11T17:11:39.760</time></trkpt><trkpt lat="56.8247376" lon="53.1319753"><time>2024-11-11T17:11:43.767</time></trkpt><trkpt lat="56.8246950" lon="53.1320043"><time>2024-11-11T17:11:47.793</time></trkpt><trkpt lat="56.8246473" lon="53.1320462"><time>2024-11-11T17:11:52.837</time></trkpt><trkpt lat="56.8246045" lon="53.1320778"><time>2024-11-11T17:11:56.837</time></trkpt><trkpt lat="56.8245574" lon="53.1321055"><time>2024-11-11T17:12:00.873</time></trkpt><trkpt lat="56.8245087" lon="53.1321185"><time>2024-11-11T17:12:04.817</time></trkpt><trkpt lat="56.8244611" lon="53.1321413"><time>2024-11-11T17:12:08.770</time></trkpt><trkpt lat="56.8244160" lon="53.1321659"><time>2024-11-11T17:12:12.790</time></trkpt><trkpt lat="56.8243731" lon="53.1322085"><time>2024-11-11T17:12:16.790</time></trkpt><trkpt lat="56.8243308" lon="53.1322373"><time>2024-11-11T17:12:20.793</time></trkpt><trkpt lat="56.8242784" lon="53.1322255"><time>2024-11-11T17:12:25.790</time></trkpt><trkpt lat="56.8242361" lon="53.1321915"><time>2024-11-11T17:12:30.757</time></trkpt><trkpt lat="56.8241837" lon="53.1321827"><time>2024-11-11T17:12:36.763</time></trkpt><trkpt lat="56.8241337" lon="53.1321983"><time>2024-11-11T17:12:41.763</time></trkpt><trkpt lat="56.8240831" lon="53.1321923"><time>2024-11-11T17:12:46.780</time></trkpt><trkpt lat="56.8240329" lon="53.1321775"><time>2024-11-11T17:12:51.773</time></trkpt><trkpt lat="56.8239857" lon="53.1321845"><time>2024-11-11T17:12:55.780</time></trkpt><trkpt lat="56.8239368" lon="53.1321817"><time>2024-11-11T17:12:59.783</time></trkpt><trkpt lat="56.8238919" lon="53.1321596"><time>2024-11-11T17:13:03.780</time></trkpt><trkpt lat="56.8238524" lon="53.1321185"><time>2024-11-11T17:13:08.777</time></trkpt><trkpt lat="56.8238026" lon="53.1320943"><time>2024-11-11T17:13:23.787</time></trkpt><trkpt lat="56.8237564" lon="53.1321230"><time>2024-11-11T17:13:27.773</time></trkpt><trkpt lat="56.8237094" lon="53.1321578"><time>2024-11-11T17:13:31.777</time></trkpt><trkpt lat="56.8236673" lon="53.1322033"><time>2024-11-11T17:13:35.807</time></trkpt><trkpt lat="56.8236310" lon="53.1322594"><time>2024-11-11T17:13:39.810</time></trkpt><trkpt lat="56.8235954" lon="53.1323110"><time>2024-11-11T17:13:43.800</time></trkpt><trkpt lat="56.8235471" lon="53.1323004"><time>2024-11-11T17:13:47.817</time></trkpt><trkpt lat="56.8234960" lon="53.1322891"><time>2024-11-11T17:13:53.783</time></trkpt><trkpt lat="56.8234439" lon="53.1322828"><time>2024-11-11T17:14:00.810</time></trkpt><trkpt lat="56.8233922" lon="53.1322796"><time>2024-11-11T17:14:06.840</time></trkpt><trkpt lat="56.8233479" lon="53.1322292"><time>2024-11-11T17:14:12.897</time></trkpt><trkpt lat="56.8233336" lon="53.1322479"><time>2024-11-11T17:14:14.170</time></trkpt><trkpt lat="56.8232930" lon="53.1322058"><time>2024-11-11T17:14:41.757</time></trkpt><trkpt lat="56.8232467" lon="53.1322217"><time>2024-11-11T17:14:46.770</time></trkpt><trkpt lat="56.8231919" lon="53.1322167"><time>2024-11-11T17:14:51.760</time></trkpt><trkpt lat="56.8231390" lon="53.1322147"><time>2024-11-11T17:14:56.847</time></trkpt><trkpt lat="56.8230917" lon="53.1322254"><time>2024-11-11T17:15:05.773</time></trkpt><trkpt lat="56.8230481" lon="53.1322585"><time>2024-11-11T17:15:10.777</time></trkpt><trkpt lat="56.8230156" lon="53.1323267"><time>2024-11-11T17:15:14.790</time></trkpt><trkpt lat="56.8229782" lon="53.1323857"><time>2024-11-11T17:15:18.770</time></trkpt><trkpt lat="56.8229302" lon="53.1324353"><time>2024-11-11T17:15:23.773</time></trkpt><trkpt lat="56.8228918" lon="53.1324836"><time>2024-11-11T17:15:27.787</time></trkpt><trkpt lat="56.8228478" lon="53.1325324"><time>2024-11-11T17:15:31.787</time></trkpt><trkpt lat="56.8228055" lon="53.1325867"><time>2024-11-11T17:15:35.793</time></trkpt><trkpt lat="56.8227656" lon="53.1326280"><time>2024-11-11T17:15:39.787</time></trkpt><trkpt lat="56.8227313" lon="53.1326849"><time>2024-11-11T17:15:44.783</time></trkpt><trkpt lat="56.8226950" lon="53.1327467"><time>2024-11-11T17:15:51.783</time></trkpt><trkpt lat="56.8226544" lon="53.1327859"><time>2024-11-11T17:15:57.773</time></trkpt><trkpt lat="56.8226152" lon="53.1328368"><time>2024-11-11T17:16:02.777</time></trkpt><trkpt lat="56.8225727" lon="53.1328943"><time>2024-11-11T17:16:08.780</time></trkpt><trkpt lat="56.8225339" lon="53.1329508"><time>2024-11-11T17:16:14.787</time></trkpt><trkpt lat="56.8225038" lon="53.1330124"><time>2024-11-11T17:16:18.773</time></trkpt><trkpt lat="56.8224692" lon="53.1330759"><time>2024-11-11T17:16:24.783</time></trkpt><trkpt lat="56.8224501" lon="53.1331527"><time>2024-11-11T17:16:30.787</time></trkpt><trkpt lat="56.8224281" lon="53.1332311"><time>2024-11-11T17:16:36.790</time></trkpt><trkpt lat="56.8224384" lon="53.1332748"><time>2024-11-11T17:16:37.923</time></trkpt><trkpt lat="56.8224023" lon="53.1333320"><time>2024-11-11T17:16:48.777</time></trkpt><trkpt lat="56.8223542" lon="53.1333446"><time>2024-11-11T17:18:30.780</time></trkpt><trkpt lat="56.8223066" lon="53.1333753"><time>2024-11-11T17:18:35.773</time></trkpt><trkpt lat="56.8222635" lon="53.1334255"><time>2024-11-11T17:18:41.773</time></trkpt><trkpt lat="56.8222208" lon="53.1334518"><time>2024-11-11T17:18:48.787</time></trkpt><trkpt lat="56.8221840" lon="53.1335088"><time>2024-11-11T17:19:02.800</time></trkpt><trkpt lat="56.8221433" lon="53.1335503"><time>2024-11-11T17:19:08.777</time></trkpt><trkpt lat="56.8221035" lon="53.1336089"><time>2024-11-11T17:19:14.783</time></trkpt><trkpt lat="56.8220627" lon="53.1336712"><time>2024-11-11T17:19:20.793</time></trkpt><trkpt lat="56.8220224" lon="53.1337213"><time>2024-11-11T17:19:25.790</time></trkpt><trkpt lat="56.8219772" lon="53.1337196"><time>2024-11-11T17:19:30.780</time></trkpt><trkpt lat="56.8219299" lon="53.1337589"><time>2024-11-11T17:19:36.777</time></trkpt><trkpt lat="56.8218971" lon="53.1338207"><time>2024-11-11T17:19:44.770</time></trkpt><trkpt lat="56.8218576" lon="53.1338750"><time>2024-11-11T17:19:50.867</time></trkpt><trkpt lat="56.8218215" lon="53.1339288"><time>2024-11-11T17:19:55.787</time></trkpt><trkpt lat="56.8217832" lon="53.1339874"><time>2024-11-11T17:20:00.800</time></trkpt><trkpt lat="56.8217419" lon="53.1340419"><time>2024-11-11T17:20:05.777</time></trkpt><trkpt lat="56.8217038" lon="53.1340972"><time>2024-11-11T17:20:10.777</time></trkpt><trkpt lat="56.8216791" lon="53.1341727"><time>2024-11-11T17:20:15.787</time></trkpt><trkpt lat="56.8216365" lon="53.1342159"><time>2024-11-11T17:20:22.790</time></trkpt><trkpt lat="56.8216812" lon="53.1342581"><time>2024-11-11T17:20:24.803</time></trkpt><trkpt lat="56.8217220" lon="53.1342129"><time>2024-11-11T17:21:14.787</time></trkpt><trkpt lat="56.8217531" lon="53.1341306"><time>2024-11-11T17:21:19.773</time></trkpt><trkpt lat="56.8217901" lon="53.1340689"><time>2024-11-11T17:21:24.783</time></trkpt><trkpt lat="56.8218130" lon="53.1339985"><time>2024-11-11T17:21:29.777</time></trkpt><trkpt lat="56.8218414" lon="53.1339282"><time>2024-11-11T17:21:54.780</time></trkpt><trkpt lat="56.8218830" lon="53.1338639"><time>2024-11-11T17:22:00.823</time></trkpt><trkpt lat="56.8219242" lon="53.1339166"><time>2024-11-11T17:22:15.787</time></trkpt><trkpt lat="56.8219408" lon="53.1339957"><time>2024-11-11T17:22:24.790</time></trkpt><trkpt lat="56.8219627" lon="53.1340750"><time>2024-11-11T17:22:34.810</time></trkpt><trkpt lat="56.8219633" lon="53.1340957"><time>2024-11-11T17:22:35.970</time></trkpt><trkpt lat="56.8220136" lon="53.1340658"><time>2024-11-11T17:22:44.787</time></trkpt><trkpt lat="56.8220563" lon="53.1340351"><time>2024-11-11T17:22:55.777</time></trkpt><trkpt lat="56.8221069" lon="53.1340290"><time>2024-11-11T17:23:04.783</time></trkpt><trkpt lat="56.8221521" lon="53.1339909"><time>2024-11-11T17:23:13.787</time></trkpt><trkpt lat="56.8221933" lon="53.1339366"><time>2024-11-11T17:23:21.787</time></trkpt><trkpt lat="56.8222412" lon="53.1339232"><time>2024-11-11T17:23:29.797</time></trkpt><trkpt lat="56.8222820" lon="53.1338817"><time>2024-11-11T17:23:39.807</time></trkpt><trkpt lat="56.8222687" lon="53.1338797"><time>2024-11-11T17:23:40.953</time></trkpt><trkpt lat="56.8223202" lon="53.1338623"><time>2024-11-11T17:23:47.787</time></trkpt><trkpt lat="56.8223666" lon="53.1338522"><time>2024-11-11T17:24:04.783</time></trkpt><trkpt lat="56.8223806" lon="53.1337671"><time>2024-11-11T17:24:11.790</time></trkpt><trkpt lat="56.8223538" lon="53.1338438"><time>2024-11-11T17:24:43.797</time></trkpt><trkpt lat="56.8223356" lon="53.1339287"><time>2024-11-11T17:24:49.787</time></trkpt><trkpt lat="56.8223097" lon="53.1339976"><time>2024-11-11T17:24:54.793</time></trkpt><trkpt lat="56.8223188" lon="53.1340342"><time>2024-11-11T17:24:55.960</time></trkpt><trkpt lat="56.8222953" lon="53.1341131"><time>2024-11-11T17:25:03.813</time></trkpt><trkpt lat="56.8222879" lon="53.1341987"><time>2024-11-11T17:25:12.797</time></trkpt><trkpt lat="56.8222741" lon="53.1342849"><time>2024-11-11T17:25:19.800</time></trkpt><trkpt lat="56.8222647" lon="53.1343709"><time>2024-11-11T17:25:25.797</time></trkpt><trkpt lat="56.8222373" lon="53.1344523"><time>2024-11-11T17:25:31.813</time></trkpt><trkpt lat="56.8222373" lon="53.1344523"><time>2024-11-11T17:25:31.867</time></trkpt><trkpt lat="56.8222482" lon="53.1345401"><time>2024-11-11T17:25:40.807</time></trkpt><trkpt lat="56.8222583" lon="53.1345648"><time>2024-11-11T17:25:41.953</time></trkpt><trkpt lat="56.8222115" lon="53.1345524"><time>2024-11-11T17:26:06.783</time></trkpt><trkpt lat="56.8221639" lon="53.1345191"><time>2024-11-11T17:27:30.840</time></trkpt><trkpt lat="56.8221220" lon="53.1344815"><time>2024-11-11T17:27:35.787</time></trkpt><trkpt lat="56.8220802" lon="53.1345233"><time>2024-11-11T17:27:40.793</time></trkpt><trkpt lat="56.8220418" lon="53.1345870"><time>2024-11-11T17:27:45.793</time></trkpt><trkpt lat="56.8220034" lon="53.1346481"><time>2024-11-11T17:27:50.787</time></trkpt><trkpt lat="56.8219621" lon="53.1346902"><time>2024-11-11T17:27:55.797</time></trkpt><trkpt lat="56.8219144" lon="53.1347165"><time>2024-11-11T17:28:00.783</time></trkpt><trkpt lat="56.8218635" lon="53.1347382"><time>2024-11-11T17:28:05.790</time></trkpt><trkpt lat="56.8218111" lon="53.1347460"><time>2024-11-11T17:28:10.780</time></trkpt><trkpt lat="56.8217564" lon="53.1347609"><time>2024-11-11T17:28:15.787</time></trkpt><trkpt lat="56.8217067" lon="53.1347535"><time>2024-11-11T17:28:20.797</time></trkpt><trkpt lat="56.8216570" lon="53.1347553"><time>2024-11-11T17:28:25.777</time></trkpt><trkpt lat="56.8216105" lon="53.1347514"><time>2024-11-11T17:28:29.793</time></trkpt><trkpt lat="56.8215640" lon="53.1347564"><time>2024-11-11T17:28:33.780</time></trkpt><trkpt lat="56.8215224" lon="53.1348048"><time>2024-11-11T17:28:39.783</time></trkpt><trkpt lat="56.8214786" lon="53.1348322"><time>2024-11-11T17:28:45.800</time></trkpt><trkpt lat="56.8214263" lon="53.1348574"><time>2024-11-11T17:28:51.800</time></trkpt><trkpt lat="56.8213788" lon="53.1348833"><time>2024-11-11T17:28:56.790</time></trkpt><trkpt lat="56.8213303" lon="53.1349149"><time>2024-11-11T17:29:01.787</time></trkpt><trkpt lat="56.8212954" lon="53.1349714"><time>2024-11-11T17:29:08.800</time></trkpt><trkpt lat="56.8212548" lon="53.1350099"><time>2024-11-11T17:29:20.790</time></trkpt><trkpt lat="56.8212173" lon="53.1350667"><time>2024-11-11T17:29:24.790</time></trkpt><trkpt lat="56.8211897" lon="53.1351381"><time>2024-11-11T17:29:29.793</time></trkpt><trkpt lat="56.8211627" lon="53.1352053"><time>2024-11-11T17:29:33.867</time></trkpt><trkpt lat="56.8211376" lon="53.1352748"><time>2024-11-11T17:29:37.787</time></trkpt><trkpt lat="56.8211005" lon="53.1353516"><time>2024-11-11T17:29:42.827</time></trkpt><trkpt lat="56.8210720" lon="53.1354171"><time>2024-11-11T17:29:46.797</time></trkpt><trkpt lat="56.8210466" lon="53.1354861"><time>2024-11-11T17:29:50.810</time></trkpt><trkpt lat="56.8210200" lon="53.1355549"><time>2024-11-11T17:29:54.850</time></trkpt><trkpt lat="56.8209915" lon="53.1356357"><time>2024-11-11T17:29:59.833</time></trkpt><trkpt lat="56.8209608" lon="53.1357138"><time>2024-11-11T17:30:03.790</time></trkpt><trkpt lat="56.8209297" lon="53.1357952"><time>2024-11-11T17:30:07.830</time></trkpt><trkpt lat="56.8208964" lon="53.1358677"><time>2024-11-11T17:30:11.843</time></trkpt><trkpt lat="56.8208658" lon="53.1359368"><time>2024-11-11T17:30:15.827</time></trkpt><trkpt lat="56.8208413" lon="53.1360092"><time>2024-11-11T17:30:18.857</time></trkpt><trkpt lat="56.8208165" lon="53.1360794"><time>2024-11-11T17:30:21.830</time></trkpt><trkpt lat="56.8207867" lon="53.1361619"><time>2024-11-11T17:30:25.783</time></trkpt><trkpt lat="56.8207549" lon="53.1362389"><time>2024-11-11T17:30:29.790</time></trkpt><trkpt lat="56.8207256" lon="53.1363175"><time>2024-11-11T17:30:33.837</time></trkpt><trkpt lat="56.8207183" lon="53.1363489"><time>2024-11-11T17:30:35.080</time></trkpt><trkpt lat="56.8206850" lon="53.1364355"><time>2024-11-11T17:30:39.827</time></trkpt><trkpt lat="56.8206484" lon="53.1365154"><time>2024-11-11T17:30:42.860</time></trkpt><trkpt lat="56.8206349" lon="53.1365986"><time>2024-11-11T17:30:46.810</time></trkpt><trkpt lat="56.8206346" lon="53.1366866"><time>2024-11-11T17:30:50.810</time></trkpt><trkpt lat="56.8206273" lon="53.1367795"><time>2024-11-11T17:30:54.793</time></trkpt><trkpt lat="56.8206191" lon="53.1368647"><time>2024-11-11T17:30:57.867</time></trkpt><trkpt lat="56.8206136" lon="53.1369483"><time>2024-11-11T17:31:00.823</time></trkpt><trkpt lat="56.8206027" lon="53.1370456"><time>2024-11-11T17:31:04.790</time></trkpt><trkpt lat="56.8206017" lon="53.1371443"><time>2024-11-11T17:31:08.857</time></trkpt><trkpt lat="56.8205991" lon="53.1372470"><time>2024-11-11T17:31:18.827</time></trkpt><trkpt lat="56.8205879" lon="53.1373384"><time>2024-11-11T17:31:22.817</time></trkpt><trkpt lat="56.8205906" lon="53.1374289"><time>2024-11-11T17:31:26.867</time></trkpt><trkpt lat="56.8205879" lon="53.1375289"><time>2024-11-11T17:31:31.817</time></trkpt><trkpt lat="56.8205820" lon="53.1376132"><time>2024-11-11T17:31:35.823</time></trkpt><trkpt lat="56.8205822" lon="53.1377160"><time>2024-11-11T17:31:40.860</time></trkpt><trkpt lat="56.8205832" lon="53.1378087"><time>2024-11-11T17:31:44.787</time></trkpt><trkpt lat="56.8205782" lon="53.1378944"><time>2024-11-11T17:31:48.793</time></trkpt><trkpt lat="56.8205689" lon="53.1379862"><time>2024-11-11T17:31:52.827</time></trkpt><trkpt lat="56.8205485" lon="53.1380549"><time>2024-11-11T17:31:53.987</time></trkpt><trkpt lat="56.8205930" lon="53.1379943"><time>2024-11-11T17:31:57.773</time></trkpt><trkpt lat="56.8205786" lon="53.1380780"><time>2024-11-11T17:32:03.783</time></trkpt><trkpt lat="56.8205604" lon="53.1381608"><time>2024-11-11T17:32:07.780</time></trkpt><trkpt lat="56.8205543" lon="53.1382505"><time>2024-11-11T17:32:11.783</time></trkpt><trkpt lat="56.8205425" lon="53.1383336"><time>2024-11-11T17:32:15.790</time></trkpt><trkpt lat="56.8205372" lon="53.1384276"><time>2024-11-11T17:32:20.783</time></trkpt><trkpt lat="56.8205497" lon="53.1385155"><time>2024-11-11T17:32:41.787</time></trkpt><trkpt lat="56.8205392" lon="53.1385954"><time>2024-11-11T17:32:46.787</time></trkpt><trkpt lat="56.8205325" lon="53.1386950"><time>2024-11-11T17:32:51.777</time></trkpt><trkpt lat="56.8205180" lon="53.1387867"><time>2024-11-11T17:32:56.800</time></trkpt><trkpt lat="56.8205099" lon="53.1388148"><time>2024-11-11T17:32:57.960</time></trkpt><trkpt lat="56.8205009" lon="53.1389047"><time>2024-11-11T17:33:01.783</time></trkpt><trkpt lat="56.8204812" lon="53.1389915"><time>2024-11-11T17:33:05.780</time></trkpt><trkpt lat="56.8204689" lon="53.1390896"><time>2024-11-11T17:33:10.790</time></trkpt><trkpt lat="56.8204674" lon="53.1391718"><time>2024-11-11T17:33:14.810</time></trkpt><trkpt lat="56.8204663" lon="53.1392618"><time>2024-11-11T17:33:18.813</time></trkpt><trkpt lat="56.8204663" lon="53.1392618"><time>2024-11-11T17:33:19.037</time></trkpt><trkpt lat="56.8204626" lon="53.1393447"><time>2024-11-11T17:33:22.813</time></trkpt><trkpt lat="56.8204840" lon="53.1393715"><time>2024-11-11T17:33:23.980</time></trkpt><trkpt lat="56.8204876" lon="53.1394564"><time>2024-11-11T17:33:30.780</time></trkpt><trkpt lat="56.8204690" lon="53.1395357"><time>2024-11-11T17:34:21.793</time></trkpt><trkpt lat="56.8205140" lon="53.1395898"><time>2024-11-11T17:34:45.790</time></trkpt><trkpt lat="56.8205590" lon="53.1395995"><time>2024-11-11T17:34:49.800</time></trkpt><trkpt lat="56.8206123" lon="53.1396170"><time>2024-11-11T17:34:54.790</time></trkpt><trkpt lat="56.8206578" lon="53.1396244"><time>2024-11-11T17:34:58.790</time></trkpt><trkpt lat="56.8207090" lon="53.1396168"><time>2024-11-11T17:35:03.783</time></trkpt><trkpt lat="56.8207615" lon="53.1396194"><time>2024-11-11T17:35:10.790</time></trkpt><trkpt lat="56.8208077" lon="53.1396390"><time>2024-11-11T17:35:16.787</time></trkpt><trkpt lat="56.8208507" lon="53.1396678"><time>2024-11-11T17:35:29.790</time></trkpt><trkpt lat="56.8209023" lon="53.1396545"><time>2024-11-11T17:35:34.780</time></trkpt><trkpt lat="56.8209505" lon="53.1396562"><time>2024-11-11T17:35:38.783</time></trkpt><trkpt lat="56.8210039" lon="53.1396549"><time>2024-11-11T17:35:43.797</time></trkpt><trkpt lat="56.8210497" lon="53.1396692"><time>2024-11-11T17:35:47.780</time></trkpt><trkpt lat="56.8210983" lon="53.1396817"><time>2024-11-11T17:35:52.777</time></trkpt><trkpt lat="56.8211506" lon="53.1397024"><time>2024-11-11T17:35:57.780</time></trkpt><trkpt lat="56.8211967" lon="53.1396954"><time>2024-11-11T17:36:01.780</time></trkpt><trkpt lat="56.8212440" lon="53.1396911"><time>2024-11-11T17:36:05.780</time></trkpt><trkpt lat="56.8212887" lon="53.1397027"><time>2024-11-11T17:36:09.777</time></trkpt><trkpt lat="56.8213344" lon="53.1397173"><time>2024-11-11T17:36:13.787</time></trkpt><trkpt lat="56.8213867" lon="53.1397365"><time>2024-11-11T17:36:18.780</time></trkpt><trkpt lat="56.8214387" lon="53.1397452"><time>2024-11-11T17:36:23.777</time></trkpt><trkpt lat="56.8214939" lon="53.1397549"><time>2024-11-11T17:36:28.777</time></trkpt><trkpt lat="56.8215480" lon="53.1397718"><time>2024-11-11T17:36:33.787</time></trkpt><trkpt lat="56.8215330" lon="53.1397795"><time>2024-11-11T17:36:34.940</time></trkpt><trkpt lat="56.8215889" lon="53.1397699"><time>2024-11-11T17:36:38.777</time></trkpt><trkpt lat="56.8216438" lon="53.1397863"><time>2024-11-11T17:36:43.777</time></trkpt><trkpt lat="56.8216985" lon="53.1397892"><time>2024-11-11T17:36:47.793</time></trkpt><trkpt lat="56.8217480" lon="53.1398075"><time>2024-11-11T17:36:51.790</time></trkpt><trkpt lat="56.8217991" lon="53.1398155"><time>2024-11-11T17:36:55.777</time></trkpt><trkpt lat="56.8218443" lon="53.1398106"><time>2024-11-11T17:36:59.787</time></trkpt><trkpt lat="56.8218958" lon="53.1398055"><time>2024-11-11T17:37:04.797</time></trkpt><trkpt lat="56.8219403" lon="53.1398568"><time>2024-11-11T17:37:08.790</time></trkpt><trkpt lat="56.8219871" lon="53.1398861"><time>2024-11-11T17:37:12.777</time></trkpt><trkpt lat="56.8220334" lon="53.1398729"><time>2024-11-11T17:37:17.787</time></trkpt><trkpt lat="56.8220870" lon="53.1398757"><time>2024-11-11T17:37:31.790</time></trkpt><trkpt lat="56.8221335" lon="53.1398481"><time>2024-11-11T17:37:35.793</time></trkpt><trkpt lat="56.8221744" lon="53.1398097"><time>2024-11-11T17:37:39.790</time></trkpt><trkpt lat="56.8222053" lon="53.1397421"><time>2024-11-11T17:37:43.807</time></trkpt><trkpt lat="56.8222299" lon="53.1396715"><time>2024-11-11T17:37:47.790</time></trkpt><trkpt lat="56.8222741" lon="53.1396115"><time>2024-11-11T17:37:51.790</time></trkpt><trkpt lat="56.8223074" lon="53.1395563"><time>2024-11-11T17:37:55.780</time></trkpt><trkpt lat="56.8223495" lon="53.1395093"><time>2024-11-11T17:38:05.780</time></trkpt><trkpt lat="56.8223942" lon="53.1394655"><time>2024-11-11T17:38:10.780</time></trkpt><trkpt lat="56.8224361" lon="53.1394189"><time>2024-11-11T17:38:15.800</time></trkpt><trkpt lat="56.8224565" lon="53.1394316"><time>2024-11-11T17:38:16.947</time></trkpt><trkpt lat="56.8224928" lon="53.1393661"><time>2024-11-11T17:38:20.773</time></trkpt><trkpt lat="56.8225397" lon="53.1393324"><time>2024-11-11T17:38:26.780</time></trkpt><trkpt lat="56.8225892" lon="53.1393351"><time>2024-11-11T17:38:31.793</time></trkpt><trkpt lat="56.8226389" lon="53.1393175"><time>2024-11-11T17:38:36.780</time></trkpt><trkpt lat="56.8226807" lon="53.1392869"><time>2024-11-11T17:38:40.790</time></trkpt><trkpt lat="56.8227361" lon="53.1392788"><time>2024-11-11T17:38:44.793</time></trkpt><trkpt lat="56.8227856" lon="53.1392730"><time>2024-11-11T17:38:48.780</time></trkpt><trkpt lat="56.8228333" lon="53.1392734"><time>2024-11-11T17:38:52.787</time></trkpt><trkpt lat="56.8228850" lon="53.1392583"><time>2024-11-11T17:38:57.807</time></trkpt><trkpt lat="56.8228619" lon="53.1392635"><time>2024-11-11T17:38:58.960</time></trkpt><trkpt lat="56.8229030" lon="53.1392183"><time>2024-11-11T17:39:07.780</time></trkpt><trkpt lat="56.8229481" lon="53.1392444"><time>2024-11-11T17:39:13.787</time></trkpt><trkpt lat="56.8229931" lon="53.1392756"><time>2024-11-11T17:39:18.803</time></trkpt><trkpt lat="56.8230377" lon="53.1393205"><time>2024-11-11T17:39:39.797</time></trkpt><trkpt lat="56.8230865" lon="53.1393558"><time>2024-11-11T17:39:44.793</time></trkpt><trkpt lat="56.8231357" lon="53.1393882"><time>2024-11-11T17:39:49.790</time></trkpt><trkpt lat="56.8231357" lon="53.1393882"><time>2024-11-11T17:39:49.893</time></trkpt><trkpt lat="56.8231767" lon="53.1394247"><time>2024-11-11T17:40:01.803</time></trkpt><trkpt lat="56.8231829" lon="53.1394640"><time>2024-11-11T17:40:02.953</time></trkpt><trkpt lat="56.8232320" lon="53.1394476"><time>2024-11-11T17:40:14.787</time></trkpt><trkpt lat="56.8232861" lon="53.1394338"><time>2024-11-11T17:40:21.790</time></trkpt><trkpt lat="56.8233337" lon="53.1394235"><time>2024-11-11T17:40:25.800</time></trkpt><trkpt lat="56.8233805" lon="53.1393777"><time>2024-11-11T17:40:30.787</time></trkpt><trkpt lat="56.8234248" lon="53.1393473"><time>2024-11-11T17:41:13.790</time></trkpt><trkpt lat="56.8234716" lon="53.1393049"><time>2024-11-11T17:41:18.787</time></trkpt><trkpt lat="56.8235238" lon="53.1392713"><time>2024-11-11T17:41:24.797</time></trkpt><trkpt lat="56.8235687" lon="53.1392343"><time>2024-11-11T17:41:29.787</time></trkpt><trkpt lat="56.8236130" lon="53.1392058"><time>2024-11-11T17:41:36.780</time></trkpt><trkpt lat="56.8236564" lon="53.1391608"><time>2024-11-11T17:41:41.793</time></trkpt><trkpt lat="56.8236964" lon="53.1391212"><time>2024-11-11T17:41:46.790</time></trkpt><trkpt lat="56.8237432" lon="53.1390796"><time>2024-11-11T17:41:51.777</time></trkpt><trkpt lat="56.8237823" lon="53.1390133"><time>2024-11-11T17:41:56.783</time></trkpt><trkpt lat="56.8238048" lon="53.1389203"><time>2024-11-11T17:42:02.787</time></trkpt><trkpt lat="56.8238441" lon="53.1388617"><time>2024-11-11T17:42:06.787</time></trkpt><trkpt lat="56.8238810" lon="53.1387865"><time>2024-11-11T17:42:11.803</time></trkpt><trkpt lat="56.8239272" lon="53.1387428"><time>2024-11-11T17:42:14.807</time></trkpt><trkpt lat="56.8239743" lon="53.1386880"><time>2024-11-11T17:42:17.800</time></trkpt><trkpt lat="56.8240105" lon="53.1386212"><time>2024-11-11T17:42:21.797</time></trkpt><trkpt lat="56.8240463" lon="53.1385632"><time>2024-11-11T17:42:25.790</time></trkpt><trkpt lat="56.8240839" lon="53.1385089"><time>2024-11-11T17:42:29.800</time></trkpt><trkpt lat="56.8241240" lon="53.1384389"><time>2024-11-11T17:42:34.863</time></trkpt><trkpt lat="56.8241684" lon="53.1383987"><time>2024-11-11T17:42:38.877</time></trkpt><trkpt lat="56.8242132" lon="53.1383426"><time>2024-11-11T17:42:42.833</time></trkpt><trkpt lat="56.8242575" lon="53.1382812"><time>2024-11-11T17:42:46.870</time></trkpt><trkpt lat="56.8243107" lon="53.1382433"><time>2024-11-11T17:42:50.837</time></trkpt><trkpt lat="56.8243519" lon="53.1381839"><time>2024-11-11T17:42:54.870</time></trkpt><trkpt lat="56.8243952" lon="53.1381314"><time>2024-11-11T17:42:58.877</time></trkpt><trkpt lat="56.8244388" lon="53.1380659"><time>2024-11-11T17:43:02.823</time></trkpt><trkpt lat="56.8244772" lon="53.1380158"><time>2024-11-11T17:43:05.790</time></trkpt><trkpt lat="56.8245176" lon="53.1379521"><time>2024-11-11T17:43:09.837</time></trkpt><trkpt lat="56.8245579" lon="53.1379013"><time>2024-11-11T17:43:13.803</time></trkpt><trkpt lat="56.8245964" lon="53.1378567"><time>2024-11-11T17:43:17.787</time></trkpt><trkpt lat="56.8246279" lon="53.1377960"><time>2024-11-11T17:43:22.807</time></trkpt><trkpt lat="56.8246790" lon="53.1377236"><time>2024-11-11T17:43:26.820</time></trkpt><trkpt lat="56.8247234" lon="53.1376649"><time>2024-11-11T17:43:31.827</time></trkpt><trkpt lat="56.8247608" lon="53.1376177"><time>2024-11-11T17:43:36.817</time></trkpt><trkpt lat="56.8248064" lon="53.1375574"><time>2024-11-11T17:43:41.833</time></trkpt><trkpt lat="56.8248448" lon="53.1375024"><time>2024-11-11T17:43:45.820</time></trkpt><trkpt lat="56.8248812" lon="53.1374328"><time>2024-11-11T17:43:51.780</time></trkpt><trkpt lat="56.8249112" lon="53.1373583"><time>2024-11-11T17:43:57.813</time></trkpt><trkpt lat="56.8249376" lon="53.1372913"><time>2024-11-11T17:44:01.823</time></trkpt><trkpt lat="56.8249695" lon="53.1372218"><time>2024-11-11T17:46:05.797</time></trkpt><trkpt lat="56.8250085" lon="53.1371630"><time>2024-11-11T17:46:10.797</time></trkpt><trkpt lat="56.8250460" lon="53.1371114"><time>2024-11-11T17:46:15.787</time></trkpt><trkpt lat="56.8250839" lon="53.1370514"><time>2024-11-11T17:47:08.783</time></trkpt><trkpt lat="56.8251237" lon="53.1369863"><time>2024-11-11T17:47:14.800</time></trkpt><trkpt lat="56.8251712" lon="53.1369294"><time>2024-11-11T17:47:19.803</time></trkpt><trkpt lat="56.8252157" lon="53.1368965"><time>2024-11-11T17:47:23.820</time></trkpt><trkpt lat="56.8252678" lon="53.1368730"><time>2024-11-11T17:47:28.803</time></trkpt><trkpt lat="56.8253072" lon="53.1368275"><time>2024-11-11T17:47:33.880</time></trkpt><trkpt lat="56.8253472" lon="53.1367890"><time>2024-11-11T17:47:37.857</time></trkpt><trkpt lat="56.8253986" lon="53.1367530"><time>2024-11-11T17:47:42.830</time></trkpt><trkpt lat="56.8254398" lon="53.1366937"><time>2024-11-11T17:47:47.800</time></trkpt><trkpt lat="56.8254875" lon="53.1366483"><time>2024-11-11T17:47:52.800</time></trkpt><trkpt lat="56.8255357" lon="53.1366086"><time>2024-11-11T17:47:57.823</time></trkpt><trkpt lat="56.8255828" lon="53.1365731"><time>2024-11-11T17:48:06.910</time></trkpt><trkpt lat="56.8256182" lon="53.1365175"><time>2024-11-11T17:48:09.823</time></trkpt><trkpt lat="56.8256684" lon="53.1364955"><time>2024-11-11T17:48:14.790</time></trkpt><trkpt lat="56.8257197" lon="53.1364846"><time>2024-11-11T17:48:21.827</time></trkpt><trkpt lat="56.8257649" lon="53.1364721"><time>2024-11-11T17:48:26.797</time></trkpt><trkpt lat="56.8258136" lon="53.1364674"><time>2024-11-11T17:48:31.783</time></trkpt><trkpt lat="56.8258643" lon="53.1364589"><time>2024-11-11T17:48:37.787</time></trkpt><trkpt lat="56.8259127" lon="53.1364451"><time>2024-11-11T17:48:42.810</time></trkpt><trkpt lat="56.8259582" lon="53.1364280"><time>2024-11-11T17:48:47.787</time></trkpt><trkpt lat="56.8260103" lon="53.1364671"><time>2024-11-11T17:48:53.783</time></trkpt><trkpt lat="56.8260457" lon="53.1365216"><time>2024-11-11T17:48:57.840</time></trkpt><trkpt lat="56.8260724" lon="53.1365458"><time>2024-11-11T17:48:59.077</time></trkpt><trkpt lat="56.8261009" lon="53.1366313"><time>2024-11-11T17:49:03.847</time></trkpt><trkpt lat="56.8261204" lon="53.1367264"><time>2024-11-11T17:49:08.793</time></trkpt><trkpt lat="56.8261470" lon="53.1367955"><time>2024-11-11T17:49:11.837</time></trkpt><trkpt lat="56.8261738" lon="53.1368753"><time>2024-11-11T17:49:15.847</time></trkpt><trkpt lat="56.8262275" lon="53.1368590"><time>2024-11-11T17:49:19.837</time></trkpt><trkpt lat="56.8262735" lon="53.1368463"><time>2024-11-11T17:49:24.873</time></trkpt><trkpt lat="56.8263039" lon="53.1369232"><time>2024-11-11T17:49:29.870</time></trkpt><trkpt lat="56.8263285" lon="53.1370016"><time>2024-11-11T17:49:33.787</time></trkpt><trkpt lat="56.8263790" lon="53.1370366"><time>2024-11-11T17:49:37.800</time></trkpt><trkpt lat="56.8264299" lon="53.1370263"><time>2024-11-11T17:49:41.827</time></trkpt><trkpt lat="56.8264752" lon="53.1370292"><time>2024-11-11T17:49:45.877</time></trkpt><trkpt lat="56.8265214" lon="53.1370306"><time>2024-11-11T17:49:49.837</time></trkpt><trkpt lat="56.8265768" lon="53.1370205"><time>2024-11-11T17:49:54.877</time></trkpt><trkpt lat="56.8266240" lon="53.1370017"><time>2024-11-11T17:49:58.890</time></trkpt><trkpt lat="56.8266723" lon="53.1369925"><time>2024-11-11T17:50:02.787</time></trkpt><trkpt lat="56.8267213" lon="53.1369875"><time>2024-11-11T17:50:06.797</time></trkpt><trkpt lat="56.8267699" lon="53.1369818"><time>2024-11-11T17:50:10.797</time></trkpt><trkpt lat="56.8268171" lon="53.1369836"><time>2024-11-11T17:50:14.830</time></trkpt><trkpt lat="56.8268685" lon="53.1369765"><time>2024-11-11T17:50:19.837</time></trkpt><trkpt lat="56.8269205" lon="53.1369695"><time>2024-11-11T17:50:24.870</time></trkpt><trkpt lat="56.8269678" lon="53.1369588"><time>2024-11-11T17:50:28.797</time></trkpt><trkpt lat="56.8270164" lon="53.1369488"><time>2024-11-11T17:50:32.853</time></trkpt><trkpt lat="56.8270523" lon="53.1370164"><time>2024-11-11T17:50:33.983</time></trkpt><trkpt lat="56.8271022" lon="53.1369662"><time>2024-11-11T17:50:37.847</time></trkpt><trkpt lat="56.8271507" lon="53.1369321"><time>2024-11-11T17:50:41.837</time></trkpt><trkpt lat="56.8271960" lon="53.1369128"><time>2024-11-11T17:50:45.783</time></trkpt><trkpt lat="56.8272499" lon="53.1368857"><time>2024-11-11T17:50:50.793</time></trkpt><trkpt lat="56.8272989" lon="53.1368720"><time>2024-11-11T17:50:54.793</time></trkpt><trkpt lat="56.8273544" lon="53.1368796"><time>2024-11-11T17:50:58.803</time></trkpt><trkpt lat="56.8274136" lon="53.1368827"><time>2024-11-11T17:51:02.790</time></trkpt><trkpt lat="56.8274655" lon="53.1368810"><time>2024-11-11T17:51:06.790</time></trkpt><trkpt lat="56.8275136" lon="53.1368637"><time>2024-11-11T17:51:10.810</time></trkpt><trkpt lat="56.8275315" lon="53.1369132"><time>2024-11-11T17:51:11.957</time></trkpt><trkpt lat="56.8275907" lon="53.1368881"><time>2024-11-11T17:51:15.783</time></trkpt><trkpt lat="56.8276486" lon="53.1368869"><time>2024-11-11T17:51:20.837</time></trkpt><trkpt lat="56.8276942" lon="53.1368720"><time>2024-11-11T17:51:24.817</time></trkpt><trkpt lat="56.8277468" lon="53.1368494"><time>2024-11-11T17:51:29.883</time></trkpt><trkpt lat="56.8277894" lon="53.1368110"><time>2024-11-11T17:51:33.893</time></trkpt><trkpt lat="56.8278030" lon="53.1367184"><time>2024-11-11T17:51:37.883</time></trkpt><trkpt lat="56.8278186" lon="53.1366321"><time>2024-11-11T17:51:41.783</time></trkpt><trkpt lat="56.8278180" lon="53.1365335"><time>2024-11-11T17:51:46.800</time></trkpt><trkpt lat="56.8278180" lon="53.1365335"><time>2024-11-11T17:51:46.913</time></trkpt><trkpt lat="56.8278125" lon="53.1364484"><time>2024-11-11T17:51:51.797</time></trkpt><trkpt lat="56.8278176" lon="53.1364580"><time>2024-11-11T17:51:52.930</time></trkpt><trkpt lat="56.8278064" lon="53.1363542"><time>2024-11-11T17:51:56.787</time></trkpt><trkpt lat="56.8278230" lon="53.1362777"><time>2024-11-11T17:52:02.800</time></trkpt><trkpt lat="56.8278244" lon="53.1363622"><time>2024-11-11T17:52:24.790</time></trkpt><trkpt lat="56.8278205" lon="53.1364565"><time>2024-11-11T17:52:34.790</time></trkpt><trkpt lat="56.8278248" lon="53.1365534"><time>2024-11-11T17:52:39.790</time></trkpt><trkpt lat="56.8278302" lon="53.1366383"><time>2024-11-11T17:52:43.783</time></trkpt><trkpt lat="56.8278724" lon="53.1366920"><time>2024-11-11T17:52:48.803</time></trkpt><trkpt lat="56.8279037" lon="53.1367762"><time>2024-11-11T17:52:53.800</time></trkpt><trkpt lat="56.8279080" lon="53.1368615"><time>2024-11-11T17:52:57.800</time></trkpt><trkpt lat="56.8279206" lon="53.1369523"><time>2024-11-11T17:53:01.823</time></trkpt><trkpt lat="56.8279293" lon="53.1370353"><time>2024-11-11T17:53:06.807</time></trkpt><trkpt lat="56.8279308" lon="53.1371258"><time>2024-11-11T17:53:10.787</time></trkpt><trkpt lat="56.8279381" lon="53.1372122"><time>2024-11-11T17:53:40.793</time></trkpt><trkpt lat="56.8279230" lon="53.1372953"><time>2024-11-11T17:53:47.817</time></trkpt><trkpt lat="56.8278910" lon="53.1373662"><time>2024-11-11T17:53:52.817</time></trkpt><trkpt lat="56.8278775" lon="53.1374548"><time>2024-11-11T17:53:56.823</time></trkpt><trkpt lat="56.8278761" lon="53.1375402"><time>2024-11-11T17:54:00.807</time></trkpt><trkpt lat="56.8278690" lon="53.1376464"><time>2024-11-11T17:54:05.803</time></trkpt><trkpt lat="56.8278442" lon="53.1377324"><time>2024-11-11T17:54:09.867</time></trkpt><trkpt lat="56.8277999" lon="53.1377732"><time>2024-11-11T17:54:14.890</time></trkpt><trkpt lat="56.8277535" lon="53.1377913"><time>2024-11-11T17:54:18.797</time></trkpt><trkpt lat="56.8277107" lon="53.1378179"><time>2024-11-11T17:54:22.797</time></trkpt><trkpt lat="56.8276926" lon="53.1378964"><time>2024-11-11T17:54:26.803</time></trkpt><trkpt lat="56.8276811" lon="53.1379915"><time>2024-11-11T17:54:31.797</time></trkpt><trkpt lat="56.8276522" lon="53.1380743"><time>2024-11-11T17:54:36.863</time></trkpt><trkpt lat="56.8276222" lon="53.1381456"><time>2024-11-11T17:54:40.887</time></trkpt><trkpt lat="56.8275938" lon="53.1382125"><time>2024-11-11T17:54:44.810</time></trkpt><trkpt lat="56.8276183" lon="53.1381829"><time>2024-11-11T17:54:46.040</time></trkpt><trkpt lat="56.8276165" lon="53.1381947"><time>2024-11-11T17:54:47.193</time></trkpt><trkpt lat="56.8275924" lon="53.1382640"><time>2024-11-11T17:54:48.800</time></trkpt><trkpt lat="56.8275918" lon="53.1382776"><time>2024-11-11T17:54:49.953</time></trkpt><trkpt lat="56.8275685" lon="53.1383541"><time>2024-11-11T17:54:55.820</time></trkpt><trkpt lat="56.8275510" lon="53.1384376"><time>2024-11-11T17:54:59.810</time></trkpt><trkpt lat="56.8275433" lon="53.1385345"><time>2024-11-11T17:55:03.810</time></trkpt><trkpt lat="56.8275367" lon="53.1386163"><time>2024-11-11T17:55:06.800</time></trkpt><trkpt lat="56.8275302" lon="53.1387074"><time>2024-11-11T17:55:10.827</time></trkpt><trkpt lat="56.8275304" lon="53.1388032"><time>2024-11-11T17:55:14.823</time></trkpt><trkpt lat="56.8275267" lon="53.1389086"><time>2024-11-11T17:55:18.790</time></trkpt><trkpt lat="56.8275275" lon="53.1390098"><time>2024-11-11T17:55:22.843</time></trkpt><trkpt lat="56.8275331" lon="53.1391087"><time>2024-11-11T17:55:26.807</time></trkpt><trkpt lat="56.8275395" lon="53.1391912"><time>2024-11-11T17:55:30.823</time></trkpt><trkpt lat="56.8275426" lon="53.1392795"><time>2024-11-11T17:55:34.800</time></trkpt><trkpt lat="56.8275449" lon="53.1393687"><time>2024-11-11T17:55:38.803</time></trkpt><trkpt lat="56.8275467" lon="53.1394644"><time>2024-11-11T17:55:42.807</time></trkpt><trkpt lat="56.8275546" lon="53.1395480"><time>2024-11-11T17:55:46.810</time></trkpt><trkpt lat="56.8275591" lon="53.1396406"><time>2024-11-11T17:55:50.840</time></trkpt><trkpt lat="56.8275713" lon="53.1397281"><time>2024-11-11T17:55:54.827</time></trkpt><trkpt lat="56.8275771" lon="53.1398232"><time>2024-11-11T17:55:58.807</time></trkpt><trkpt lat="56.8275820" lon="53.1399202"><time>2024-11-11T17:56:02.830</time></trkpt><trkpt lat="56.8275850" lon="53.1399482"><time>2024-11-11T17:56:04.007</time></trkpt><trkpt lat="56.8275755" lon="53.1400517"><time>2024-11-11T17:56:08.797</time></trkpt><trkpt lat="56.8275733" lon="53.1401339"><time>2024-11-11T17:56:12.797</time></trkpt><trkpt lat="56.8275761" lon="53.1402192"><time>2024-11-11T17:56:16.827</time></trkpt><trkpt lat="56.8275848" lon="53.1403118"><time>2024-11-11T17:56:20.803</time></trkpt><trkpt lat="56.8276066" lon="53.1403962"><time>2024-11-11T17:56:24.857</time></trkpt><trkpt lat="56.8276168" lon="53.1404956"><time>2024-11-11T17:56:29.830</time></trkpt><trkpt lat="56.8276270" lon="53.1405821"><time>2024-11-11T17:56:33.870</time></trkpt><trkpt lat="56.8276341" lon="53.1406653"><time>2024-11-11T17:56:37.903</time></trkpt><trkpt lat="56.8276172" lon="53.1407063"><time>2024-11-11T17:56:39.123</time></trkpt><trkpt lat="56.8276229" lon="53.1407909"><time>2024-11-11T17:56:42.850</time></trkpt><trkpt lat="56.8276327" lon="53.1408890"><time>2024-11-11T17:56:47.847</time></trkpt><trkpt lat="56.8276374" lon="53.1409731"><time>2024-11-11T17:56:51.797</time></trkpt><trkpt lat="56.8276433" lon="53.1410610"><time>2024-11-11T17:56:55.827</time></trkpt><trkpt lat="56.8276547" lon="53.1411504"><time>2024-11-11T17:56:59.907</time></trkpt><trkpt lat="56.8276547" lon="53.1411504"><time>2024-11-11T17:57:00.063</time></trkpt><trkpt lat="56.8276641" lon="53.1412432"><time>2024-11-11T17:57:03.813</time></trkpt><trkpt lat="56.8276837" lon="53.1411801"><time>2024-11-11T17:57:04.967</time></trkpt><trkpt lat="56.8276813" lon="53.1412668"><time>2024-11-11T17:57:08.863</time></trkpt><trkpt lat="56.8276832" lon="53.1413504"><time>2024-11-11T17:57:12.877</time></trkpt><trkpt lat="56.8276645" lon="53.1414435"><time>2024-11-11T17:57:16.793</time></trkpt><trkpt lat="56.8276296" lon="53.1415016"><time>2024-11-11T17:57:20.790</time></trkpt><trkpt lat="56.8275824" lon="53.1415303"><time>2024-11-11T17:57:25.797</time></trkpt><trkpt lat="56.8275349" lon="53.1415636"><time>2024-11-11T17:57:30.800</time></trkpt><trkpt lat="56.8275748" lon="53.1415253"><time>2024-11-11T17:57:41.797</time></trkpt><trkpt lat="56.8276208" lon="53.1415443"><time>2024-11-11T17:58:13.797</time></trkpt><trkpt lat="56.8276694" lon="53.1415739"><time>2024-11-11T17:58:18.807</time></trkpt><trkpt lat="56.8277031" lon="53.1416410"><time>2024-11-11T17:58:22.823</time></trkpt><trkpt lat="56.8277070" lon="53.1417254"><time>2024-11-11T17:58:26.840</time></trkpt><trkpt lat="56.8277081" lon="53.1418124"><time>2024-11-11T17:58:30.787</time></trkpt><trkpt lat="56.8277031" lon="53.1418989"><time>2024-11-11T17:58:34.807</time></trkpt><trkpt lat="56.8276974" lon="53.1419958"><time>2024-11-11T17:58:39.790</time></trkpt><trkpt lat="56.8276948" lon="53.1420977"><time>2024-11-11T17:58:44.790</time></trkpt><trkpt lat="56.8276974" lon="53.1421962"><time>2024-11-11T17:58:49.800</time></trkpt><trkpt lat="56.8277049" lon="53.1422900"><time>2024-11-11T17:58:54.793</time></trkpt><trkpt lat="56.8277168" lon="53.1423813"><time>2024-11-11T17:58:59.800</time></trkpt><trkpt lat="56.8277159" lon="53.1424741"><time>2024-11-11T17:59:04.807</time></trkpt><trkpt lat="56.8276710" lon="53.1424889"><time>2024-11-11T17:59:08.797</time></trkpt><trkpt lat="56.8276261" lon="53.1424964"><time>2024-11-11T17:59:12.797</time></trkpt><trkpt lat="56.8275733" lon="53.1425276"><time>2024-11-11T17:59:17.797</time></trkpt><trkpt lat="56.8275380" lon="53.1425858"><time>2024-11-11T17:59:21.800</time></trkpt><trkpt lat="56.8275114" lon="53.1426581"><time>2024-11-11T17:59:25.787</time></trkpt><trkpt lat="56.8274821" lon="53.1427280"><time>2024-11-11T17:59:29.807</time></trkpt><trkpt lat="56.8274634" lon="53.1428056"><time>2024-11-11T17:59:35.800</time></trkpt><trkpt lat="56.8274656" lon="53.1428881"><time>2024-11-11T17:59:41.803</time></trkpt><trkpt lat="56.8274751" lon="53.1429789"><time>2024-11-11T17:59:47.807</time></trkpt><trkpt lat="56.8274786" lon="53.1430618"><time>2024-11-11T17:59:52.827</time></trkpt><trkpt lat="56.8274835" lon="53.1431484"><time>2024-11-11T17:59:57.850</time></trkpt><trkpt lat="56.8275067" lon="53.1432254"><time>2024-11-11T18:00:01.893</time></trkpt><trkpt lat="56.8275521" lon="53.1432388"><time>2024-11-11T18:00:13.807</time></trkpt><trkpt lat="56.8275016" lon="53.1432522"><time>2024-11-11T18:00:31.807</time></trkpt><trkpt lat="56.8274591" lon="53.1432872"><time>2024-11-11T18:00:36.797</time></trkpt><trkpt lat="56.8274223" lon="53.1433436"><time>2024-11-11T18:00:41.847</time></trkpt><trkpt lat="56.8273944" lon="53.1434185"><time>2024-11-11T18:00:47.833</time></trkpt><trkpt lat="56.8273928" lon="53.1435128"><time>2024-11-11T18:00:54.807</time></trkpt><trkpt lat="56.8273640" lon="53.1435762"><time>2024-11-11T18:00:59.830</time></trkpt><trkpt lat="56.8273403" lon="53.1436582"><time>2024-11-11T18:01:03.840</time></trkpt><trkpt lat="56.8273437" lon="53.1437420"><time>2024-11-11T18:01:07.847</time></trkpt><trkpt lat="56.8273508" lon="53.1438320"><time>2024-11-11T18:01:12.800</time></trkpt><trkpt lat="56.8273465" lon="53.1439281"><time>2024-11-11T18:01:17.853</time></trkpt><trkpt lat="56.8273462" lon="53.1440197"><time>2024-11-11T18:01:21.837</time></trkpt><trkpt lat="56.8273402" lon="53.1441124"><time>2024-11-11T18:01:25.837</time></trkpt><trkpt lat="56.8273457" lon="53.1442125"><time>2024-11-11T18:01:30.790</time></trkpt><trkpt lat="56.8273515" lon="53.1442963"><time>2024-11-11T18:01:34.827</time></trkpt><trkpt lat="56.8273592" lon="53.1443877"><time>2024-11-11T18:01:38.800</time></trkpt><trkpt lat="56.8273984" lon="53.1444471"><time>2024-11-11T18:01:43.800</time></trkpt><trkpt lat="56.8274440" lon="53.1444896"><time>2024-11-11T18:01:48.870</time></trkpt><trkpt lat="56.8274823" lon="53.1445500"><time>2024-11-11T18:01:54.830</time></trkpt><trkpt lat="56.8275159" lon="53.1446349"><time>2024-11-11T18:01:58.820</time></trkpt><trkpt lat="56.8275354" lon="53.1447137"><time>2024-11-11T18:02:02.800</time></trkpt><trkpt lat="56.8275613" lon="53.1447809"><time>2024-11-11T18:02:07.887</time></trkpt><trkpt lat="56.8276063" lon="53.1448054"><time>2024-11-11T18:02:12.887</time></trkpt><trkpt lat="56.8276399" lon="53.1448751"><time>2024-11-11T18:02:17.860</time></trkpt><trkpt lat="56.8276703" lon="53.1449457"><time>2024-11-11T18:02:23.827</time></trkpt><trkpt lat="56.8277045" lon="53.1450060"><time>2024-11-11T18:02:29.823</time></trkpt><trkpt lat="56.8277483" lon="53.1450348"><time>2024-11-11T18:02:47.787</time></trkpt><trkpt lat="56.8277820" lon="53.1450968"><time>2024-11-11T18:03:09.820</time></trkpt><trkpt lat="56.8277829" lon="53.1451347"><time>2024-11-11T18:03:11</time></trkpt><trkpt lat="56.8277903" lon="53.1452183"><time>2024-11-11T18:03:15.803</time></trkpt><trkpt lat="56.8277870" lon="53.1453153"><time>2024-11-11T18:03:20.797</time></trkpt><trkpt lat="56.8277940" lon="53.1454161"><time>2024-11-11T18:03:37.907</time></trkpt><trkpt lat="56.8277889" lon="53.1455151"><time>2024-11-11T18:03:42.830</time></trkpt><trkpt lat="56.8277752" lon="53.1456011"><time>2024-11-11T18:03:46.840</time></trkpt><trkpt lat="56.8277973" lon="53.1456901"><time>2024-11-11T18:03:52.880</time></trkpt><trkpt lat="56.8278087" lon="53.1457726"><time>2024-11-11T18:03:58.830</time></trkpt><trkpt lat="56.8278572" lon="53.1457388"><time>2024-11-11T18:04:12.837</time></trkpt><trkpt lat="56.8278995" lon="53.1458024"><time>2024-11-11T18:04:15.793</time></trkpt><trkpt lat="56.8279311" lon="53.1458632"><time>2024-11-11T18:04:18.807</time></trkpt><trkpt lat="56.8279446" lon="53.1459467"><time>2024-11-11T18:04:22.803</time></trkpt><trkpt lat="56.8279408" lon="53.1460287"><time>2024-11-11T18:04:25.877</time></trkpt><trkpt lat="56.8279366" lon="53.1461134"><time>2024-11-11T18:04:28.797</time></trkpt><trkpt lat="56.8279262" lon="53.1462044"><time>2024-11-11T18:04:32.833</time></trkpt><trkpt lat="56.8278910" lon="53.1462653"><time>2024-11-11T18:04:43.837</time></trkpt><trkpt lat="56.8278430" lon="53.1463156"><time>2024-11-11T18:04:48.897</time></trkpt><trkpt lat="56.8278033" lon="53.1463638"><time>2024-11-11T18:04:53.830</time></trkpt><trkpt lat="56.8277657" lon="53.1464337"><time>2024-11-11T18:04:57.830</time></trkpt><trkpt lat="56.8277308" lon="53.1464947"><time>2024-11-11T18:05:00.897</time></trkpt><trkpt lat="56.8276807" lon="53.1465572"><time>2024-11-11T18:05:04.887</time></trkpt><trkpt lat="56.8276363" lon="53.1466163"><time>2024-11-11T18:05:08.803</time></trkpt><trkpt lat="56.8276005" lon="53.1466857"><time>2024-11-11T18:05:11.827</time></trkpt><trkpt lat="56.8276178" lon="53.1467633"><time>2024-11-11T18:05:14.840</time></trkpt><trkpt lat="56.8276126" lon="53.1468493"><time>2024-11-11T18:05:18.797</time></trkpt><trkpt lat="56.8275980" lon="53.1469441"><time>2024-11-11T18:05:24.867</time></trkpt><trkpt lat="56.8275962" lon="53.1470384"><time>2024-11-11T18:05:29.810</time></trkpt><trkpt lat="56.8276084" lon="53.1471368"><time>2024-11-11T18:05:34.827</time></trkpt><trkpt lat="56.8276100" lon="53.1472215"><time>2024-11-11T18:05:38.857</time></trkpt><trkpt lat="56.8276372" lon="53.1473020"><time>2024-11-11T18:05:44.893</time></trkpt><trkpt lat="56.8276490" lon="53.1472615"><time>2024-11-11T18:05:46.123</time></trkpt><trkpt lat="56.8276841" lon="53.1473522"><time>2024-11-11T18:05:50.803</time></trkpt><trkpt lat="56.8277244" lon="53.1473958"><time>2024-11-11T18:05:55.803</time></trkpt><trkpt lat="56.8277750" lon="53.1474241"><time>2024-11-11T18:06:01.877</time></trkpt><trkpt lat="56.8278034" lon="53.1475083"><time>2024-11-11T18:06:07.833</time></trkpt><trkpt lat="56.8278107" lon="53.1476151"><time>2024-11-11T18:06:11.857</time></trkpt><trkpt lat="56.8278259" lon="53.1476969"><time>2024-11-11T18:06:14.790</time></trkpt><trkpt lat="56.8278436" lon="53.1477912"><time>2024-11-11T18:06:18.793</time></trkpt><trkpt lat="56.8278568" lon="53.1478858"><time>2024-11-11T18:06:22.847</time></trkpt><trkpt lat="56.8278675" lon="53.1479877"><time>2024-11-11T18:06:26.800</time></trkpt><trkpt lat="56.8278756" lon="53.1480866"><time>2024-11-11T18:06:30.797</time></trkpt><trkpt lat="56.8278795" lon="53.1481787"><time>2024-11-11T18:06:34.803</time></trkpt><trkpt lat="56.8279102" lon="53.1482453"><time>2024-11-11T18:06:38.793</time></trkpt><trkpt lat="56.8279514" lon="53.1482817"><time>2024-11-11T18:06:42.830</time></trkpt><trkpt lat="56.8279660" lon="53.1483068"><time>2024-11-11T18:06:44.027</time></trkpt><trkpt lat="56.8280119" lon="53.1483292"><time>2024-11-11T18:06:48.797</time></trkpt><trkpt lat="56.8280619" lon="53.1483451"><time>2024-11-11T18:06:52.807</time></trkpt><trkpt lat="56.8281121" lon="53.1483339"><time>2024-11-11T18:06:56.807</time></trkpt><trkpt lat="56.8281589" lon="53.1483313"><time>2024-11-11T18:07:00.807</time></trkpt><trkpt lat="56.8282112" lon="53.1483056"><time>2024-11-11T18:07:05.807</time></trkpt><trkpt lat="56.8282603" lon="53.1482730"><time>2024-11-11T18:07:10.807</time></trkpt><trkpt lat="56.8282603" lon="53.1482730"><time>2024-11-11T18:07:11.043</time></trkpt><trkpt lat="56.8283181" lon="53.1482638"><time>2024-11-11T18:07:15.823</time></trkpt><trkpt lat="56.8282967" lon="53.1483314"><time>2024-11-11T18:07:16.960</time></trkpt><trkpt lat="56.8283052" lon="53.1482450"><time>2024-11-11T18:07:24.797</time></trkpt><trkpt lat="56.8283077" lon="53.1481611"><time>2024-11-11T18:07:28.797</time></trkpt><trkpt lat="56.8283369" lon="53.1482328"><time>2024-11-11T18:07:40.797</time></trkpt><trkpt lat="56.8283820" lon="53.1481944"><time>2024-11-11T18:07:47.793</time></trkpt><trkpt lat="56.8284265" lon="53.1482068"><time>2024-11-11T18:08:21.807</time></trkpt><trkpt lat="56.8284715" lon="53.1482110"><time>2024-11-11T18:08:25.787</time></trkpt><trkpt lat="56.8285148" lon="53.1482570"><time>2024-11-11T18:08:30.807</time></trkpt><trkpt lat="56.8285337" lon="53.1483399"><time>2024-11-11T18:08:34.807</time></trkpt><trkpt lat="56.8285463" lon="53.1484255"><time>2024-11-11T18:08:39.807</time></trkpt><trkpt lat="56.8285932" lon="53.1484499"><time>2024-11-11T18:08:46.807</time></trkpt><trkpt lat="56.8286457" lon="53.1484495"><time>2024-11-11T18:08:52.810</time></trkpt><trkpt lat="56.8286955" lon="53.1484444"><time>2024-11-11T18:08:57.800</time></trkpt><trkpt lat="56.8287451" lon="53.1484384"><time>2024-11-11T18:09:01.807</time></trkpt><trkpt lat="56.8288016" lon="53.1484373"><time>2024-11-11T18:09:05.820</time></trkpt><trkpt lat="56.8288545" lon="53.1484278"><time>2024-11-11T18:09:09.803</time></trkpt><trkpt lat="56.8289069" lon="53.1484201"><time>2024-11-11T18:09:13.797</time></trkpt><trkpt lat="56.8289614" lon="53.1484106"><time>2024-11-11T18:09:17.877</time></trkpt><trkpt lat="56.8290090" lon="53.1484032"><time>2024-11-11T18:09:21.833</time></trkpt><trkpt lat="56.8290622" lon="53.1483946"><time>2024-11-11T18:09:25.830</time></trkpt><trkpt lat="56.8291119" lon="53.1483671"><time>2024-11-11T18:09:29.803</time></trkpt><trkpt lat="56.8291572" lon="53.1483570"><time>2024-11-11T18:09:33.863</time></trkpt><trkpt lat="56.8292040" lon="53.1483106"><time>2024-11-11T18:09:37.893</time></trkpt><trkpt lat="56.8292547" lon="53.1482834"><time>2024-11-11T18:09:41.807</time></trkpt><trkpt lat="56.8293024" lon="53.1482713"><time>2024-11-11T18:09:45.833</time></trkpt><trkpt lat="56.8293529" lon="53.1482448"><time>2024-11-11T18:09:49.807</time></trkpt><trkpt lat="56.8294049" lon="53.1482415"><time>2024-11-11T18:09:53.810</time></trkpt><trkpt lat="56.8294542" lon="53.1482484"><time>2024-11-11T18:09:57.847</time></trkpt><trkpt lat="56.8295087" lon="53.1482621"><time>2024-11-11T18:10:01.803</time></trkpt><trkpt lat="56.8295579" lon="53.1482644"><time>2024-11-11T18:10:05.863</time></trkpt><trkpt lat="56.8296035" lon="53.1482727"><time>2024-11-11T18:10:09.813</time></trkpt><trkpt lat="56.8296557" lon="53.1482665"><time>2024-11-11T18:10:13.807</time></trkpt><trkpt lat="56.8297009" lon="53.1482576"><time>2024-11-11T18:10:17.827</time></trkpt><trkpt lat="56.8297486" lon="53.1482514"><time>2024-11-11T18:10:21.790</time></trkpt><trkpt lat="56.8298011" lon="53.1482568"><time>2024-11-11T18:10:25.793</time></trkpt><trkpt lat="56.8298473" lon="53.1482582"><time>2024-11-11T18:10:29.797</time></trkpt><trkpt lat="56.8299013" lon="53.1482454"><time>2024-11-11T18:10:34.797</time></trkpt><trkpt lat="56.8299566" lon="53.1482358"><time>2024-11-11T18:10:39.803</time></trkpt><trkpt lat="56.8300071" lon="53.1482261"><time>2024-11-11T18:10:44.803</time></trkpt><trkpt lat="56.8300622" lon="53.1482161"><time>2024-11-11T18:10:49.790</time></trkpt><trkpt lat="56.8301157" lon="53.1482097"><time>2024-11-11T18:10:54.823</time></trkpt><trkpt lat="56.8301182" lon="53.1482122"><time>2024-11-11T18:10:56.013</time></trkpt><trkpt lat="56.8301697" lon="53.1482259"><time>2024-11-11T18:11:17.803</time></trkpt><trkpt lat="56.8302277" lon="53.1482291"><time>2024-11-11T18:11:22.803</time></trkpt><trkpt lat="56.8302707" lon="53.1482551"><time>2024-11-11T18:11:26.800</time></trkpt><trkpt lat="56.8303223" lon="53.1482694"><time>2024-11-11T18:11:30.807</time></trkpt><trkpt lat="56.8303699" lon="53.1482763"><time>2024-11-11T18:11:34.837</time></trkpt><trkpt lat="56.8304223" lon="53.1482786"><time>2024-11-11T18:11:39.827</time></trkpt><trkpt lat="56.8304694" lon="53.1482792"><time>2024-11-11T18:11:44.803</time></trkpt><trkpt lat="56.8305217" lon="53.1482566"><time>2024-11-11T18:11:49.803</time></trkpt><trkpt lat="56.8305667" lon="53.1482384"><time>2024-11-11T18:11:55.840</time></trkpt><trkpt lat="56.8306023" lon="53.1483062"><time>2024-11-11T18:12:46.810</time></trkpt><trkpt lat="56.8306476" lon="53.1483284"><time>2024-11-11T18:12:49.803</time></trkpt><trkpt lat="56.8307035" lon="53.1483618"><time>2024-11-11T18:12:52.893</time></trkpt><trkpt lat="56.8307576" lon="53.1483972"><time>2024-11-11T18:12:55.800</time></trkpt><trkpt lat="56.8308078" lon="53.1484064"><time>2024-11-11T18:12:58.867</time></trkpt><trkpt lat="56.8308544" lon="53.1484352"><time>2024-11-11T18:13:03.803</time></trkpt><trkpt lat="56.8308933" lon="53.1484803"><time>2024-11-11T18:13:07.813</time></trkpt><trkpt lat="56.8309055" lon="53.1485793"><time>2024-11-11T18:13:11.853</time></trkpt><trkpt lat="56.8309201" lon="53.1486608"><time>2024-11-11T18:13:15.813</time></trkpt><trkpt lat="56.8309272" lon="53.1487435"><time>2024-11-11T18:13:19.810</time></trkpt><trkpt lat="56.8309287" lon="53.1488269"><time>2024-11-11T18:13:23.837</time></trkpt><trkpt lat="56.8309322" lon="53.1489153"><time>2024-11-11T18:13:27.823</time></trkpt><trkpt lat="56.8309327" lon="53.1490015"><time>2024-11-11T18:13:30.827</time></trkpt><trkpt lat="56.8309444" lon="53.1490359"><time>2024-11-11T18:13:32.813</time></trkpt><trkpt lat="56.8309420" lon="53.1491308"><time>2024-11-11T18:13:34.810</time></trkpt><trkpt lat="56.8309384" lon="53.1492250"><time>2024-11-11T18:13:38.900</time></trkpt><trkpt lat="56.8309458" lon="53.1493063"><time>2024-11-11T18:13:42.847</time></trkpt><trkpt lat="56.8309712" lon="53.1493848"><time>2024-11-11T18:13:47.893</time></trkpt><trkpt lat="56.8309884" lon="53.1494636"><time>2024-11-11T18:13:51.803</time></trkpt><trkpt lat="56.8310060" lon="53.1495443"><time>2024-11-11T18:13:56.977</time></trkpt><trkpt lat="56.8310459" lon="53.1496121"><time>2024-11-11T18:14:01.870</time></trkpt><trkpt lat="56.8310849" lon="53.1496832"><time>2024-11-11T18:14:05.807</time></trkpt><trkpt lat="56.8311302" lon="53.1497462"><time>2024-11-11T18:14:11.903</time></trkpt><trkpt lat="56.8311623" lon="53.1498070"><time>2024-11-11T18:14:15.907</time></trkpt><trkpt lat="56.8311357" lon="53.1497613"><time>2024-11-11T18:14:17.130</time></trkpt><trkpt lat="56.8311589" lon="53.1498317"><time>2024-11-11T18:14:20.797</time></trkpt><trkpt lat="56.8311847" lon="53.1499000"><time>2024-11-11T18:14:23.787</time></trkpt><trkpt lat="56.8312087" lon="53.1499698"><time>2024-11-11T18:14:27.803</time></trkpt><trkpt lat="56.8312152" lon="53.1500757"><time>2024-11-11T18:14:31.797</time></trkpt><trkpt lat="56.8312220" lon="53.1501804"><time>2024-11-11T18:14:35.803</time></trkpt><trkpt lat="56.8312276" lon="53.1502649"><time>2024-11-11T18:14:38.797</time></trkpt><trkpt lat="56.8312337" lon="53.1503575"><time>2024-11-11T18:14:42.797</time></trkpt><trkpt lat="56.8312413" lon="53.1504425"><time>2024-11-11T18:14:46.807</time></trkpt><trkpt lat="56.8312885" lon="53.1504479"><time>2024-11-11T18:14:53.800</time></trkpt><trkpt lat="56.8313408" lon="53.1504390"><time>2024-11-11T18:14:59.797</time></trkpt><trkpt lat="56.8313864" lon="53.1504144"><time>2024-11-11T18:15:03.820</time></trkpt><trkpt lat="56.8313864" lon="53.1504144"><time>2024-11-11T18:15:03.913</time></trkpt><trkpt lat="56.8314431" lon="53.1504101"><time>2024-11-11T18:15:07.820</time></trkpt><trkpt lat="56.8313813" lon="53.1503445"><time>2024-11-11T18:15:08.977</time></trkpt><trkpt lat="56.8314187" lon="53.1502950"><time>2024-11-11T18:15:13.797</time></trkpt><trkpt lat="56.8314663" lon="53.1502609"><time>2024-11-11T18:15:22.810</time></trkpt><trkpt lat="56.8315131" lon="53.1502033"><time>2024-11-11T18:15:27.807</time></trkpt><trkpt lat="56.8315592" lon="53.1501677"><time>2024-11-11T18:15:45.807</time></trkpt><trkpt lat="56.8316076" lon="53.1501485"><time>2024-11-11T18:15:51.803</time></trkpt><trkpt lat="56.8316560" lon="53.1501353"><time>2024-11-11T18:15:55.797</time></trkpt><trkpt lat="56.8317089" lon="53.1501297"><time>2024-11-11T18:15:59.803</time></trkpt><trkpt lat="56.8317567" lon="53.1500822"><time>2024-11-11T18:16:03.797</time></trkpt><trkpt lat="56.8317986" lon="53.1500132"><time>2024-11-11T18:16:07.807</time></trkpt><trkpt lat="56.8318497" lon="53.1499804"><time>2024-11-11T18:16:12.797</time></trkpt><trkpt lat="56.8318951" lon="53.1500395"><time>2024-11-11T18:16:18.810</time></trkpt><trkpt lat="56.8319101" lon="53.1501376"><time>2024-11-11T18:16:22.810</time></trkpt><trkpt lat="56.8319213" lon="53.1502224"><time>2024-11-11T18:16:26.800</time></trkpt><trkpt lat="56.8319311" lon="53.1503206"><time>2024-11-11T18:16:31.790</time></trkpt><trkpt lat="56.8319400" lon="53.1504202"><time>2024-11-11T18:16:36.807</time></trkpt><trkpt lat="56.8319497" lon="53.1505061"><time>2024-11-11T18:16:43.803</time></trkpt><trkpt lat="56.8319543" lon="53.1506022"><time>2024-11-11T18:16:49.827</time></trkpt><trkpt lat="56.8319608" lon="53.1506952"><time>2024-11-11T18:16:55.800</time></trkpt><trkpt lat="56.8319609" lon="53.1507908"><time>2024-11-11T18:17:03.810</time></trkpt><trkpt lat="56.8319985" lon="53.1508399"><time>2024-11-11T18:17:07.807</time></trkpt><trkpt lat="56.8320127" lon="53.1509354"><time>2024-11-11T18:17:12.820</time></trkpt><trkpt lat="56.8320043" lon="53.1510234"><time>2024-11-11T18:17:16.813</time></trkpt><trkpt lat="56.8319970" lon="53.1511114"><time>2024-11-11T18:17:20.817</time></trkpt><trkpt lat="56.8319820" lon="53.1512005"><time>2024-11-11T18:17:24.823</time></trkpt><trkpt lat="56.8319768" lon="53.1512963"><time>2024-11-11T18:17:28.823</time></trkpt><trkpt lat="56.8320098" lon="53.1513608"><time>2024-11-11T18:17:35.807</time></trkpt><trkpt lat="56.8320640" lon="53.1513915"><time>2024-11-11T18:17:39.803</time></trkpt><trkpt lat="56.8321068" lon="53.1514276"><time>2024-11-11T18:17:43.810</time></trkpt><trkpt lat="56.8321425" lon="53.1514862"><time>2024-11-11T18:17:47.827</time></trkpt><trkpt lat="56.8321166" lon="53.1514947"><time>2024-11-11T18:17:49.010</time></trkpt><trkpt lat="56.8321186" lon="53.1514957"><time>2024-11-11T18:17:50.167</time></trkpt><trkpt lat="56.8321840" lon="53.1515213"><time>2024-11-11T18:17:53.820</time></trkpt><trkpt lat="56.8321895" lon="53.1515572"><time>2024-11-11T18:17:54.953</time></trkpt><trkpt lat="56.8322574" lon="53.1515574"><time>2024-11-11T18:17:56.803</time></trkpt><trkpt lat="56.8323076" lon="53.1515487"><time>2024-11-11T18:18:00.807</time></trkpt><trkpt lat="56.8323657" lon="53.1515379"><time>2024-11-11T18:18:04.807</time></trkpt><trkpt lat="56.8324105" lon="53.1515442"><time>2024-11-11T18:18:07.810</time></trkpt><trkpt lat="56.8324369" lon="53.1516122"><time>2024-11-11T18:18:10.810</time></trkpt><trkpt lat="56.8324829" lon="53.1516300"><time>2024-11-11T18:18:14.800</time></trkpt><trkpt lat="56.8325371" lon="53.1516021"><time>2024-11-11T18:18:18.800</time></trkpt><trkpt lat="56.8325815" lon="53.1515765"><time>2024-11-11T18:18:22.803</time></trkpt><trkpt lat="56.8326307" lon="53.1515399"><time>2024-11-11T18:18:27.807</time></trkpt><trkpt lat="56.8326726" lon="53.1514965"><time>2024-11-11T18:18:31.807</time></trkpt><trkpt lat="56.8327237" lon="53.1514982"><time>2024-11-11T18:18:36.803</time></trkpt><trkpt lat="56.8327690" lon="53.1514781"><time>2024-11-11T18:18:40.800</time></trkpt><trkpt lat="56.8328173" lon="53.1514517"><time>2024-11-11T18:18:45.807</time></trkpt><trkpt lat="56.8328629" lon="53.1514730"><time>2024-11-11T18:18:50.807</time></trkpt><trkpt lat="56.8329067" lon="53.1514334"><time>2024-11-11T18:18:55.817</time></trkpt><trkpt lat="56.8329479" lon="53.1513952"><time>2024-11-11T18:18:59.803</time></trkpt><trkpt lat="56.8329871" lon="53.1513548"><time>2024-11-11T18:19:03.823</time></trkpt><trkpt lat="56.8330431" lon="53.1513569"><time>2024-11-11T18:19:16.793</time></trkpt><trkpt lat="56.8330974" lon="53.1513485"><time>2024-11-11T18:19:57.820</time></trkpt><trkpt lat="56.8331418" lon="53.1513644"><time>2024-11-11T18:20:01.803</time></trkpt><trkpt lat="56.8331878" lon="53.1513746"><time>2024-11-11T18:20:05.803</time></trkpt><trkpt lat="56.8332422" lon="53.1513940"><time>2024-11-11T18:20:10.800</time></trkpt><trkpt lat="56.8332928" lon="53.1514300"><time>2024-11-11T18:20:15.803</time></trkpt><trkpt lat="56.8333335" lon="53.1514666"><time>2024-11-11T18:20:19.800</time></trkpt><trkpt lat="56.8333857" lon="53.1514573"><time>2024-11-11T18:20:25.823</time></trkpt><trkpt lat="56.8334320" lon="53.1514815"><time>2024-11-11T18:20:31.797</time></trkpt><trkpt lat="56.8334627" lon="53.1515454"><time>2024-11-11T18:20:36.813</time></trkpt><trkpt lat="56.8334533" lon="53.1516353"><time>2024-11-11T18:21:56.800</time></trkpt><trkpt lat="56.8334527" lon="53.1517280"><time>2024-11-11T18:22:02.797</time></trkpt><trkpt lat="56.8334629" lon="53.1518093"><time>2024-11-11T18:22:07.820</time></trkpt><trkpt lat="56.8334704" lon="53.1518376"><time>2024-11-11T18:22:08.970</time></trkpt><trkpt lat="56.8335041" lon="53.1519189"><time>2024-11-11T18:22:13.800</time></trkpt><trkpt lat="56.8335349" lon="53.1519877"><time>2024-11-11T18:22:17.797</time></trkpt><trkpt lat="56.8335474" lon="53.1520809"><time>2024-11-11T18:22:21.800</time></trkpt><trkpt lat="56.8335603" lon="53.1521704"><time>2024-11-11T18:22:25.827</time></trkpt><trkpt lat="56.8335745" lon="53.1522528"><time>2024-11-11T18:22:29.807</time></trkpt><trkpt lat="56.8335838" lon="53.1523432"><time>2024-11-11T18:22:33.807</time></trkpt><trkpt lat="56.8335913" lon="53.1524252"><time>2024-11-11T18:22:37.807</time></trkpt><trkpt lat="56.8335883" lon="53.1525098"><time>2024-11-11T18:22:41.810</time></trkpt><trkpt lat="56.8335716" lon="53.1525927"><time>2024-11-11T18:22:45.797</time></trkpt><trkpt lat="56.8335418" lon="53.1526653"><time>2024-11-11T18:22:49.813</time></trkpt><trkpt lat="56.8335357" lon="53.1527285"><time>2024-11-11T18:22:50.673</time></trkpt><trkpt lat="56.8335285" lon="53.1528199"><time>2024-11-11T18:23:01.793</time></trkpt><trkpt lat="56.8335193" lon="53.1529005"><time>2024-11-11T18:23:06.807</time></trkpt><trkpt lat="56.8335170" lon="53.1529917"><time>2024-11-11T18:23:14.807</time></trkpt><trkpt lat="56.8335022" lon="53.1530694"><time>2024-11-11T18:23:20.797</time></trkpt><trkpt lat="56.8335050" lon="53.1531621"><time>2024-11-11T18:23:26.810</time></trkpt><trkpt lat="56.8335050" lon="53.1531621"><time>2024-11-11T18:23:26.953</time></trkpt><trkpt lat="56.8335172" lon="53.1532468"><time>2024-11-11T18:23:39.820</time></trkpt><trkpt lat="56.8335268" lon="53.1532873"><time>2024-11-11T18:23:40.960</time></trkpt><trkpt lat="56.8335053" lon="53.1531982"><time>2024-11-11T18:24:06.820</time></trkpt><trkpt lat="56.8334986" lon="53.1531117"><time>2024-11-11T18:24:11.793</time></trkpt><trkpt lat="56.8334779" lon="53.1530352"><time>2024-11-11T18:24:16.797</time></trkpt><trkpt lat="56.8334611" lon="53.1529506"><time>2024-11-11T18:24:20.800</time></trkpt><trkpt lat="56.8334172" lon="53.1529322"><time>2024-11-11T18:26:01.793</time></trkpt><trkpt lat="56.8333656" lon="53.1529472"><time>2024-11-11T18:26:05.800</time></trkpt><trkpt lat="56.8333207" lon="53.1529585"><time>2024-11-11T18:26:09.797</time></trkpt><trkpt lat="56.8332770" lon="53.1529780"><time>2024-11-11T18:26:13.797</time></trkpt><trkpt lat="56.8332248" lon="53.1529820"><time>2024-11-11T18:26:18.810</time></trkpt><trkpt lat="56.8331812" lon="53.1529574"><time>2024-11-11T18:26:22.800</time></trkpt><trkpt lat="56.8331270" lon="53.1529480"><time>2024-11-11T18:26:27.813</time></trkpt><trkpt lat="56.8330822" lon="53.1528892"><time>2024-11-11T18:26:32.800</time></trkpt><trkpt lat="56.8330488" lon="53.1528222"><time>2024-11-11T18:26:39.797</time></trkpt><trkpt lat="56.8330079" lon="53.1527856"><time>2024-11-11T18:26:45.797</time></trkpt><trkpt lat="56.8329698" lon="53.1527260"><time>2024-11-11T18:26:50.800</time></trkpt><trkpt lat="56.8329340" lon="53.1526504"><time>2024-11-11T18:26:55.810</time></trkpt><trkpt lat="56.8329105" lon="53.1525595"><time>2024-11-11T18:26:59.797</time></trkpt><trkpt lat="56.8328917" lon="53.1524640"><time>2024-11-11T18:27:03.807</time></trkpt><trkpt lat="56.8328759" lon="53.1523738"><time>2024-11-11T18:27:07.797</time></trkpt><trkpt lat="56.8328595" lon="53.1522934"><time>2024-11-11T18:27:11.807</time></trkpt><trkpt lat="56.8328446" lon="53.1522088"><time>2024-11-11T18:27:15.883</time></trkpt><trkpt lat="56.8328327" lon="53.1521199"><time>2024-11-11T18:27:19.857</time></trkpt><trkpt lat="56.8328177" lon="53.1520269"><time>2024-11-11T18:27:24.850</time></trkpt><trkpt lat="56.8327845" lon="53.1519609"><time>2024-11-11T18:27:28.877</time></trkpt><trkpt lat="56.8327527" lon="53.1518782"><time>2024-11-11T18:27:32.857</time></trkpt><trkpt lat="56.8327364" lon="53.1517839"><time>2024-11-11T18:27:37.823</time></trkpt><trkpt lat="56.8327208" lon="53.1516875"><time>2024-11-11T18:27:42.797</time></trkpt><trkpt lat="56.8327014" lon="53.1515982"><time>2024-11-11T18:27:47.797</time></trkpt><trkpt lat="56.8326777" lon="53.1515194"><time>2024-11-11T18:27:52.850</time></trkpt><trkpt lat="56.8326258" lon="53.1514846"><time>2024-11-11T18:27:57.807</time></trkpt><trkpt lat="56.8325750" lon="53.1514879"><time>2024-11-11T18:28:02.793</time></trkpt><trkpt lat="56.8325245" lon="53.1515089"><time>2024-11-11T18:28:07.840</time></trkpt><trkpt lat="56.8324687" lon="53.1515290"><time>2024-11-11T18:28:12.867</time></trkpt><trkpt lat="56.8324214" lon="53.1515214"><time>2024-11-11T18:28:16.893</time></trkpt><trkpt lat="56.8323699" lon="53.1515212"><time>2024-11-11T18:28:20.847</time></trkpt><trkpt lat="56.8323232" lon="53.1515269"><time>2024-11-11T18:28:24.847</time></trkpt><trkpt lat="56.8322738" lon="53.1515602"><time>2024-11-11T18:28:29.870</time></trkpt><trkpt lat="56.8322291" lon="53.1515818"><time>2024-11-11T18:28:33.853</time></trkpt><trkpt lat="56.8321909" lon="53.1515212"><time>2024-11-11T18:28:37.797</time></trkpt><trkpt lat="56.8321427" lon="53.1515098"><time>2024-11-11T18:28:41.803</time></trkpt><trkpt lat="56.8320955" lon="53.1514952"><time>2024-11-11T18:28:45.817</time></trkpt><trkpt lat="56.8320583" lon="53.1514411"><time>2024-11-11T18:28:49.843</time></trkpt><trkpt lat="56.8320583" lon="53.1513463"><time>2024-11-11T18:28:53.843</time></trkpt><trkpt lat="56.8320449" lon="53.1512522"><time>2024-11-11T18:28:58.867</time></trkpt><trkpt lat="56.8320447" lon="53.1511602"><time>2024-11-11T18:29:03.797</time></trkpt><trkpt lat="56.8320650" lon="53.1510698"><time>2024-11-11T18:29:08.843</time></trkpt><trkpt lat="56.8321020" lon="53.1510123"><time>2024-11-11T18:29:12.797</time></trkpt><trkpt lat="56.8321002" lon="53.1509133"><time>2024-11-11T18:29:17.903</time></trkpt><trkpt lat="56.8320908" lon="53.1508267"><time>2024-11-11T18:29:22.800</time></trkpt><trkpt lat="56.8320808" lon="53.1507390"><time>2024-11-11T18:29:27.867</time></trkpt><trkpt lat="56.8320748" lon="53.1506525"><time>2024-11-11T18:29:32.890</time></trkpt><trkpt lat="56.8320653" lon="53.1505662"><time>2024-11-11T18:29:37.853</time></trkpt><trkpt lat="56.8320568" lon="53.1504800"><time>2024-11-11T18:29:42.810</time></trkpt><trkpt lat="56.8320409" lon="53.1503881"><time>2024-11-11T18:29:46.853</time></trkpt><trkpt lat="56.8320251" lon="53.1502971"><time>2024-11-11T18:29:50.860</time></trkpt><trkpt lat="56.8320103" lon="53.1502129"><time>2024-11-11T18:29:54.863</time></trkpt><trkpt lat="56.8319851" lon="53.1501339"><time>2024-11-11T18:29:58.860</time></trkpt><trkpt lat="56.8319657" lon="53.1500499"><time>2024-11-11T18:30:03.807</time></trkpt><trkpt lat="56.8319659" lon="53.1499671"><time>2024-11-11T18:30:07.860</time></trkpt><trkpt lat="56.8319694" lon="53.1498594"><time>2024-11-11T18:30:12.853</time></trkpt><trkpt lat="56.8319715" lon="53.1497711"><time>2024-11-11T18:30:16.800</time></trkpt><trkpt lat="56.8319643" lon="53.1496900"><time>2024-11-11T18:30:20.847</time></trkpt><trkpt lat="56.8319512" lon="53.1495954"><time>2024-11-11T18:30:25.853</time></trkpt><trkpt lat="56.8319384" lon="53.1495030"><time>2024-11-11T18:30:30.857</time></trkpt><trkpt lat="56.8319317" lon="53.1494095"><time>2024-11-11T18:30:35.860</time></trkpt><trkpt lat="56.8319278" lon="53.1493147"><time>2024-11-11T18:30:40.903</time></trkpt><trkpt lat="56.8319225" lon="53.1492189"><time>2024-11-11T18:30:45.883</time></trkpt><trkpt lat="56.8319204" lon="53.1491184"><time>2024-11-11T18:30:50.857</time></trkpt><trkpt lat="56.8319175" lon="53.1490185"><time>2024-11-11T18:30:55.897</time></trkpt><trkpt lat="56.8319115" lon="53.1489325"><time>2024-11-11T18:30:59.910</time></trkpt><trkpt lat="56.8319054" lon="53.1488319"><time>2024-11-11T18:31:04.897</time></trkpt><trkpt lat="56.8318933" lon="53.1487428"><time>2024-11-11T18:31:08.847</time></trkpt><trkpt lat="56.8318876" lon="53.1486566"><time>2024-11-11T18:31:12.853</time></trkpt><trkpt lat="56.8318843" lon="53.1485734"><time>2024-11-11T18:31:16.873</time></trkpt><trkpt lat="56.8318808" lon="53.1484822"><time>2024-11-11T18:31:20.800</time></trkpt><trkpt lat="56.8318740" lon="53.1483949"><time>2024-11-11T18:31:24.803</time></trkpt><trkpt lat="56.8318636" lon="53.1483076"><time>2024-11-11T18:31:28.803</time></trkpt><trkpt lat="56.8318545" lon="53.1482264"><time>2024-11-11T18:31:31.863</time></trkpt><trkpt lat="56.8318479" lon="53.1481414"><time>2024-11-11T18:31:34.803</time></trkpt><trkpt lat="56.8318566" lon="53.1480568"><time>2024-11-11T18:31:38.890</time></trkpt><trkpt lat="56.8318965" lon="53.1479938"><time>2024-11-11T18:31:42.810</time></trkpt><trkpt lat="56.8319460" lon="53.1479505"><time>2024-11-11T18:31:47.857</time></trkpt><trkpt lat="56.8319966" lon="53.1479116"><time>2024-11-11T18:31:52.903</time></trkpt><trkpt lat="56.8320473" lon="53.1478635"><time>2024-11-11T18:31:57.800</time></trkpt><trkpt lat="56.8320666" lon="53.1477753"><time>2024-11-11T18:32:02.803</time></trkpt><trkpt lat="56.8320547" lon="53.1476824"><time>2024-11-11T18:32:06.863</time></trkpt><trkpt lat="56.8320374" lon="53.1475922"><time>2024-11-11T18:32:10.857</time></trkpt><trkpt lat="56.8320662" lon="53.1475222"><time>2024-11-11T18:32:15.900</time></trkpt><trkpt lat="56.8321103" lon="53.1475013"><time>2024-11-11T18:32:19.857</time></trkpt><trkpt lat="56.8321547" lon="53.1474861"><time>2024-11-11T18:32:23.810</time></trkpt><trkpt lat="56.8322011" lon="53.1474653"><time>2024-11-11T18:32:27.797</time></trkpt><trkpt lat="56.8322464" lon="53.1474422"><time>2024-11-11T18:32:31.800</time></trkpt><trkpt lat="56.8322910" lon="53.1474217"><time>2024-11-11T18:32:35.797</time></trkpt><trkpt lat="56.8323404" lon="53.1474070"><time>2024-11-11T18:32:39.863</time></trkpt><trkpt lat="56.8323849" lon="53.1473875"><time>2024-11-11T18:32:43.803</time></trkpt><trkpt lat="56.8324412" lon="53.1473727"><time>2024-11-11T18:32:48.840</time></trkpt><trkpt lat="56.8324548" lon="53.1472913"><time>2024-11-11T18:32:53.867</time></trkpt><trkpt lat="56.8325012" lon="53.1472816"><time>2024-11-11T18:33:15.803</time></trkpt><trkpt lat="56.8325437" lon="53.1472483"><time>2024-11-11T18:33:19.807</time></trkpt><trkpt lat="56.8325581" lon="53.1471547"><time>2024-11-11T18:33:24.803</time></trkpt><trkpt lat="56.8325491" lon="53.1470586"><time>2024-11-11T18:33:29.810</time></trkpt><trkpt lat="56.8325614" lon="53.1469652"><time>2024-11-11T18:33:34.803</time></trkpt><trkpt lat="56.8325679" lon="53.1468823"><time>2024-11-11T18:33:38.850</time></trkpt><trkpt lat="56.8326045" lon="53.1468193"><time>2024-11-11T18:33:43.800</time></trkpt><trkpt lat="56.8326117" lon="53.1467204"><time>2024-11-11T18:33:50.853</time></trkpt><trkpt lat="56.8325922" lon="53.1466312"><time>2024-11-11T18:33:55.890</time></trkpt><trkpt lat="56.8326146" lon="53.1465856"><time>2024-11-11T18:33:57.113</time></trkpt><trkpt lat="56.8325971" lon="53.1464826"><time>2024-11-11T18:34:00.803</time></trkpt><trkpt lat="56.8325831" lon="53.1463949"><time>2024-11-11T18:34:05.810</time></trkpt><trkpt lat="56.8325650" lon="53.1463174"><time>2024-11-11T18:34:09.807</time></trkpt><trkpt lat="56.8325481" lon="53.1462330"><time>2024-11-11T18:34:13.817</time></trkpt><trkpt lat="56.8325448" lon="53.1461492"><time>2024-11-11T18:34:17.813</time></trkpt><trkpt lat="56.8325484" lon="53.1460631"><time>2024-11-11T18:34:21.813</time></trkpt><trkpt lat="56.8325354" lon="53.1459829"><time>2024-11-11T18:34:25.813</time></trkpt><trkpt lat="56.8325243" lon="53.1458821"><time>2024-11-11T18:34:30.807</time></trkpt><trkpt lat="56.8325142" lon="53.1457853"><time>2024-11-11T18:34:35.807</time></trkpt><trkpt lat="56.8325113" lon="53.1457019"><time>2024-11-11T18:34:40.810</time></trkpt><trkpt lat="56.8325122" lon="53.1455999"><time>2024-11-11T18:34:45.813</time></trkpt><trkpt lat="56.8325081" lon="53.1455105"><time>2024-11-11T18:34:50.800</time></trkpt><trkpt lat="56.8324999" lon="53.1454194"><time>2024-11-11T18:34:57.813</time></trkpt><trkpt lat="56.8324963" lon="53.1453341"><time>2024-11-11T18:35:02.803</time></trkpt><trkpt lat="56.8324893" lon="53.1452336"><time>2024-11-11T18:35:07.807</time></trkpt><trkpt lat="56.8324858" lon="53.1451420"><time>2024-11-11T18:35:11.813</time></trkpt><trkpt lat="56.8324886" lon="53.1450591"><time>2024-11-11T18:35:15.857</time></trkpt><trkpt lat="56.8324918" lon="53.1449713"><time>2024-11-11T18:35:20.877</time></trkpt><trkpt lat="56.8324895" lon="53.1448777"><time>2024-11-11T18:35:26.850</time></trkpt><trkpt lat="56.8325166" lon="53.1448102"><time>2024-11-11T18:35:30.850</time></trkpt><trkpt lat="56.8325528" lon="53.1447614"><time>2024-11-11T18:35:34.827</time></trkpt><trkpt lat="56.8325779" lon="53.1447666"><time>2024-11-11T18:35:35.970</time></trkpt><trkpt lat="56.8326235" lon="53.1447190"><time>2024-11-11T18:35:40.833</time></trkpt><trkpt lat="56.8326699" lon="53.1446823"><time>2024-11-11T18:35:45.843</time></trkpt><trkpt lat="56.8327065" lon="53.1446303"><time>2024-11-11T18:35:59.810</time></trkpt><trkpt lat="56.8327350" lon="53.1445642"><time>2024-11-11T18:36:21.817</time></trkpt><trkpt lat="56.8327681" lon="53.1445003"><time>2024-11-11T18:36:26.817</time></trkpt><trkpt lat="56.8327981" lon="53.1444286"><time>2024-11-11T18:36:30.807</time></trkpt><trkpt lat="56.8328360" lon="53.1443598"><time>2024-11-11T18:36:36.807</time></trkpt><trkpt lat="56.8328822" lon="53.1443072"><time>2024-11-11T18:36:42.800</time></trkpt><trkpt lat="56.8329207" lon="53.1442520"><time>2024-11-11T18:36:49.820</time></trkpt><trkpt lat="56.8329064" lon="53.1442671"><time>2024-11-11T18:36:50.947</time></trkpt><trkpt lat="56.8329384" lon="53.1442090"><time>2024-11-11T18:36:54.800</time></trkpt><trkpt lat="56.8329847" lon="53.1442138"><time>2024-11-11T18:37:01.807</time></trkpt><trkpt lat="56.8330194" lon="53.1441581"><time>2024-11-11T18:37:05.803</time></trkpt><trkpt lat="56.8330237" lon="53.1440710"><time>2024-11-11T18:37:09.817</time></trkpt><trkpt lat="56.8330119" lon="53.1439746"><time>2024-11-11T18:37:13.807</time></trkpt><trkpt lat="56.8329989" lon="53.1438844"><time>2024-11-11T18:37:17.813</time></trkpt><trkpt lat="56.8329939" lon="53.1438014"><time>2024-11-11T18:37:21.810</time></trkpt><trkpt lat="56.8329968" lon="53.1437147"><time>2024-11-11T18:37:25.817</time></trkpt><trkpt lat="56.8329968" lon="53.1437147"><time>2024-11-11T18:37:26.003</time></trkpt><trkpt lat="56.8330105" lon="53.1436359"><time>2024-11-11T18:37:29.827</time></trkpt><trkpt lat="56.8330301" lon="53.1436331"><time>2024-11-11T18:37:30.987</time></trkpt><trkpt lat="56.8330563" lon="53.1435619"><time>2024-11-11T18:37:44.803</time></trkpt><trkpt lat="56.8331087" lon="53.1435310"><time>2024-11-11T18:37:49.803</time></trkpt><trkpt lat="56.8331601" lon="53.1435099"><time>2024-11-11T18:37:54.807</time></trkpt><trkpt lat="56.8331104" lon="53.1434901"><time>2024-11-11T18:39:49.813</time></trkpt><trkpt lat="56.8330598" lon="53.1434953"><time>2024-11-11T18:39:54.803</time></trkpt><trkpt lat="56.8330146" lon="53.1434991"><time>2024-11-11T18:39:59.803</time></trkpt><trkpt lat="56.8329921" lon="53.1434274"><time>2024-11-11T18:40:03.797</time></trkpt><trkpt lat="56.8329625" lon="53.1433498"><time>2024-11-11T18:40:08.803</time></trkpt><trkpt lat="56.8329218" lon="53.1433015"><time>2024-11-11T18:40:12.800</time></trkpt><trkpt lat="56.8328780" lon="53.1432579"><time>2024-11-11T18:40:16.807</time></trkpt><trkpt lat="56.8328298" lon="53.1432107"><time>2024-11-11T18:40:21.803</time></trkpt><trkpt lat="56.8327895" lon="53.1431686"><time>2024-11-11T18:40:25.810</time></trkpt><trkpt lat="56.8327432" lon="53.1431475"><time>2024-11-11T18:40:29.810</time></trkpt><trkpt lat="56.8326935" lon="53.1431434"><time>2024-11-11T18:40:33.800</time></trkpt><trkpt lat="56.8326458" lon="53.1431437"><time>2024-11-11T18:40:37.803</time></trkpt><trkpt lat="56.8325965" lon="53.1431446"><time>2024-11-11T18:40:41.810</time></trkpt><trkpt lat="56.8325472" lon="53.1431435"><time>2024-11-11T18:40:45.813</time></trkpt><trkpt lat="56.8324985" lon="53.1431368"><time>2024-11-11T18:40:49.847</time></trkpt><trkpt lat="56.8324460" lon="53.1431353"><time>2024-11-11T18:40:53.817</time></trkpt><trkpt lat="56.8323979" lon="53.1431263"><time>2024-11-11T18:40:57.807</time></trkpt><trkpt lat="56.8323577" lon="53.1430624"><time>2024-11-11T18:41:08.823</time></trkpt><trkpt lat="56.8323510" lon="53.1429744"><time>2024-11-11T18:41:14.800</time></trkpt><trkpt lat="56.8323537" lon="53.1428889"><time>2024-11-11T18:41:19.810</time></trkpt><trkpt lat="56.8323637" lon="53.1427883"><time>2024-11-11T18:41:24.810</time></trkpt><trkpt lat="56.8323667" lon="53.1426927"><time>2024-11-11T18:41:29.817</time></trkpt><trkpt lat="56.8323741" lon="53.1426083"><time>2024-11-11T18:41:33.817</time></trkpt><trkpt lat="56.8323632" lon="53.1425215"><time>2024-11-11T18:41:38.807</time></trkpt><trkpt lat="56.8323535" lon="53.1424413"><time>2024-11-11T18:41:41.810</time></trkpt><trkpt lat="56.8323392" lon="53.1423580"><time>2024-11-11T18:41:46.803</time></trkpt><trkpt lat="56.8323341" lon="53.1422569"><time>2024-11-11T18:41:51.807</time></trkpt><trkpt lat="56.8323370" lon="53.1421677"><time>2024-11-11T18:41:56.810</time></trkpt><trkpt lat="56.8323477" lon="53.1420793"><time>2024-11-11T18:42:01.803</time></trkpt><trkpt lat="56.8323255" lon="53.1420071"><time>2024-11-11T18:42:05.800</time></trkpt><trkpt lat="56.8322889" lon="53.1419502"><time>2024-11-11T18:42:09.803</time></trkpt><trkpt lat="56.8322645" lon="53.1418634"><time>2024-11-11T18:42:14.807</time></trkpt><trkpt lat="56.8322494" lon="53.1417756"><time>2024-11-11T18:42:18.793</time></trkpt><trkpt lat="56.8322380" lon="53.1416900"><time>2024-11-11T18:42:22.810</time></trkpt><trkpt lat="56.8322309" lon="53.1416054"><time>2024-11-11T18:42:27.803</time></trkpt><trkpt lat="56.8322381" lon="53.1415123"><time>2024-11-11T18:42:32.817</time></trkpt><trkpt lat="56.8322314" lon="53.1414258"><time>2024-11-11T18:42:36.803</time></trkpt><trkpt lat="56.8322265" lon="53.1413358"><time>2024-11-11T18:42:40.823</time></trkpt><trkpt lat="56.8322521" lon="53.1413343"><time>2024-11-11T18:42:41.987</time></trkpt><trkpt lat="56.8322539" lon="53.1412464"><time>2024-11-11T18:42:46.803</time></trkpt><trkpt lat="56.8322465" lon="53.1411541"><time>2024-11-11T18:42:50.803</time></trkpt><trkpt lat="56.8322509" lon="53.1410651"><time>2024-11-11T18:42:54.803</time></trkpt><trkpt lat="56.8322481" lon="53.1409676"><time>2024-11-11T18:42:59.820</time></trkpt><trkpt lat="56.8322432" lon="53.1408688"><time>2024-11-11T18:43:04.813</time></trkpt><trkpt lat="56.8322346" lon="53.1407837"><time>2024-11-11T18:43:08.817</time></trkpt><trkpt lat="56.8322274" lon="53.1406937"><time>2024-11-11T18:43:12.820</time></trkpt><trkpt lat="56.8322216" lon="53.1406026"><time>2024-11-11T18:43:16.817</time></trkpt><trkpt lat="56.8322146" lon="53.1405158"><time>2024-11-11T18:43:20.813</time></trkpt><trkpt lat="56.8322066" lon="53.1404300"><time>2024-11-11T18:43:24.807</time></trkpt><trkpt lat="56.8321949" lon="53.1403432"><time>2024-11-11T18:43:28.817</time></trkpt><trkpt lat="56.8321867" lon="53.1402429"><time>2024-11-11T18:43:33.813</time></trkpt><trkpt lat="56.8321795" lon="53.1401559"><time>2024-11-11T18:43:37.813</time></trkpt><trkpt lat="56.8321770" lon="53.1400663"><time>2024-11-11T18:43:41.810</time></trkpt><trkpt lat="56.8321655" lon="53.1399849"><time>2024-11-11T18:43:45.807</time></trkpt><trkpt lat="56.8321518" lon="53.1398926"><time>2024-11-11T18:43:52.810</time></trkpt><trkpt lat="56.8321424" lon="53.1398026"><time>2024-11-11T18:43:56.810</time></trkpt><trkpt lat="56.8321306" lon="53.1397199"><time>2024-11-11T18:44:00.810</time></trkpt><trkpt lat="56.8321265" lon="53.1396326"><time>2024-11-11T18:44:04.813</time></trkpt><trkpt lat="56.8321245" lon="53.1395496"><time>2024-11-11T18:44:08.807</time></trkpt><trkpt lat="56.8321200" lon="53.1394493"><time>2024-11-11T18:44:13.817</time></trkpt><trkpt lat="56.8321151" lon="53.1393596"><time>2024-11-11T18:44:17.823</time></trkpt><trkpt lat="56.8321105" lon="53.1392641"><time>2024-11-11T18:44:21.810</time></trkpt><trkpt lat="56.8321057" lon="53.1391692"><time>2024-11-11T18:44:25.820</time></trkpt><trkpt lat="56.8321002" lon="53.1390757"><time>2024-11-11T18:44:29.830</time></trkpt><trkpt lat="56.8320818" lon="53.1389853"><time>2024-11-11T18:44:34.813</time></trkpt><trkpt lat="56.8320784" lon="53.1389033"><time>2024-11-11T18:44:42.810</time></trkpt><trkpt lat="56.8320302" lon="53.1388641"><time>2024-11-11T18:44:53.820</time></trkpt><trkpt lat="56.8319828" lon="53.1388425"><time>2024-11-11T18:44:57.823</time></trkpt><trkpt lat="56.8319372" lon="53.1388158"><time>2024-11-11T18:45:01.830</time></trkpt><trkpt lat="56.8319511" lon="53.1388377"><time>2024-11-11T18:45:02.963</time></trkpt><trkpt lat="56.8318921" lon="53.1388017"><time>2024-11-11T18:45:06.813</time></trkpt><trkpt lat="56.8318387" lon="53.1387724"><time>2024-11-11T18:45:11.813</time></trkpt><trkpt lat="56.8317839" lon="53.1387514"><time>2024-11-11T18:45:16.827</time></trkpt><trkpt lat="56.8317374" lon="53.1387417"><time>2024-11-11T18:45:20.817</time></trkpt><trkpt lat="56.8316852" lon="53.1387238"><time>2024-11-11T18:45:25.817</time></trkpt><trkpt lat="56.8316303" lon="53.1387170"><time>2024-11-11T18:45:30.817</time></trkpt><trkpt lat="56.8315779" lon="53.1387169"><time>2024-11-11T18:45:35.807</time></trkpt><trkpt lat="56.8315251" lon="53.1387195"><time>2024-11-11T18:45:40.817</time></trkpt><trkpt lat="56.8314803" lon="53.1387264"><time>2024-11-11T18:45:44.827</time></trkpt><trkpt lat="56.8314790" lon="53.1387459"><time>2024-11-11T18:45:45.970</time></trkpt><trkpt lat="56.8314238" lon="53.1387386"><time>2024-11-11T18:45:49.807</time></trkpt><trkpt lat="56.8313718" lon="53.1387479"><time>2024-11-11T18:45:53.813</time></trkpt><trkpt lat="56.8313202" lon="53.1387679"><time>2024-11-11T18:45:58.810</time></trkpt><trkpt lat="56.8312750" lon="53.1387881"><time>2024-11-11T18:46:02.817</time></trkpt><trkpt lat="56.8312236" lon="53.1388132"><time>2024-11-11T18:46:06.823</time></trkpt><trkpt lat="56.8312236" lon="53.1388132"><time>2024-11-11T18:46:06.950</time></trkpt><trkpt lat="56.8311775" lon="53.1388489"><time>2024-11-11T18:46:10.830</time></trkpt><trkpt lat="56.8311930" lon="53.1388767"><time>2024-11-11T18:46:11.983</time></trkpt><trkpt lat="56.8311437" lon="53.1388935"><time>2024-11-11T18:46:14.807</time></trkpt><trkpt lat="56.8311011" lon="53.1389198"><time>2024-11-11T18:46:17.807</time></trkpt><trkpt lat="56.8310522" lon="53.1389421"><time>2024-11-11T18:46:21.807</time></trkpt><trkpt lat="56.8310047" lon="53.1389431"><time>2024-11-11T18:46:25.807</time></trkpt><trkpt lat="56.8309564" lon="53.1389430"><time>2024-11-11T18:46:30.817</time></trkpt><trkpt lat="56.8310086" lon="53.1389291"><time>2024-11-11T18:47:01.807</time></trkpt><trkpt lat="56.8310546" lon="53.1389099"><time>2024-11-11T18:47:11.827</time></trkpt><trkpt lat="56.8311030" lon="53.1389020"><time>2024-11-11T18:47:16.810</time></trkpt><trkpt lat="56.8311499" lon="53.1389052"><time>2024-11-11T18:47:20.807</time></trkpt><trkpt lat="56.8312115" lon="53.1388821"><time>2024-11-11T18:47:24.813</time></trkpt><trkpt lat="56.8312727" lon="53.1388660"><time>2024-11-11T18:47:28.817</time></trkpt><trkpt lat="56.8313267" lon="53.1388628"><time>2024-11-11T18:47:32.817</time></trkpt><trkpt lat="56.8313767" lon="53.1388617"><time>2024-11-11T18:47:37.813</time></trkpt><trkpt lat="56.8314288" lon="53.1388691"><time>2024-11-11T18:47:42.813</time></trkpt><trkpt lat="56.8314811" lon="53.1388550"><time>2024-11-11T18:47:47.807</time></trkpt><trkpt lat="56.8315277" lon="53.1388446"><time>2024-11-11T18:47:51.807</time></trkpt><trkpt lat="56.8315824" lon="53.1388289"><time>2024-11-11T18:47:56.807</time></trkpt><trkpt lat="56.8316325" lon="53.1388087"><time>2024-11-11T18:48:00.813</time></trkpt><trkpt lat="56.8316817" lon="53.1388033"><time>2024-11-11T18:48:05.810</time></trkpt><trkpt lat="56.8317284" lon="53.1387512"><time>2024-11-11T18:48:09.813</time></trkpt><trkpt lat="56.8317753" lon="53.1386950"><time>2024-11-11T18:48:13.820</time></trkpt><trkpt lat="56.8318206" lon="53.1386492"><time>2024-11-11T18:48:17.810</time></trkpt><trkpt lat="56.8318715" lon="53.1386256"><time>2024-11-11T18:48:22.830</time></trkpt><trkpt lat="56.8319255" lon="53.1386104"><time>2024-11-11T18:48:27.807</time></trkpt><trkpt lat="56.8319750" lon="53.1385958"><time>2024-11-11T18:48:31.843</time></trkpt><trkpt lat="56.8320287" lon="53.1385835"><time>2024-11-11T18:48:35.900</time></trkpt><trkpt lat="56.8320694" lon="53.1385319"><time>2024-11-11T18:48:39.897</time></trkpt><trkpt lat="56.8320952" lon="53.1384582"><time>2024-11-11T18:48:43.877</time></trkpt><trkpt lat="56.8321031" lon="53.1383713"><time>2024-11-11T18:48:47.860</time></trkpt><trkpt lat="56.8321374" lon="53.1382905"><time>2024-11-11T18:48:52.903</time></trkpt><trkpt lat="56.8321785" lon="53.1382323"><time>2024-11-11T18:48:56.903</time></trkpt><trkpt lat="56.8322167" lon="53.1381796"><time>2024-11-11T18:49:00.917</time></trkpt><trkpt lat="56.8322652" lon="53.1381285"><time>2024-11-11T18:49:05.897</time></trkpt><trkpt lat="56.8323176" lon="53.1381213"><time>2024-11-11T18:49:10.810</time></trkpt><trkpt lat="56.8323731" lon="53.1381184"><time>2024-11-11T18:49:15.887</time></trkpt><trkpt lat="56.8324194" lon="53.1381187"><time>2024-11-11T18:49:19.857</time></trkpt><trkpt lat="56.8324665" lon="53.1381212"><time>2024-11-11T18:49:23.860</time></trkpt><trkpt lat="56.8325201" lon="53.1381171"><time>2024-11-11T18:49:27.807</time></trkpt><trkpt lat="56.8325707" lon="53.1381014"><time>2024-11-11T18:49:31.887</time></trkpt><trkpt lat="56.8326145" lon="53.1380776"><time>2024-11-11T18:49:35.867</time></trkpt><trkpt lat="56.8326696" lon="53.1380790"><time>2024-11-11T18:49:41.003</time></trkpt><trkpt lat="56.8327205" lon="53.1380708"><time>2024-11-11T18:49:44.893</time></trkpt><trkpt lat="56.8327672" lon="53.1380584"><time>2024-11-11T18:49:48.860</time></trkpt><trkpt lat="56.8328126" lon="53.1380496"><time>2024-11-11T18:49:53.837</time></trkpt><trkpt lat="56.8328642" lon="53.1380727"><time>2024-11-11T18:49:57.847</time></trkpt><trkpt lat="56.8329184" lon="53.1380614"><time>2024-11-11T18:50:03.817</time></trkpt><trkpt lat="56.8329653" lon="53.1380303"><time>2024-11-11T18:50:07.857</time></trkpt><trkpt lat="56.8330114" lon="53.1380151"><time>2024-11-11T18:50:11.867</time></trkpt><trkpt lat="56.8330561" lon="53.1379968"><time>2024-11-11T18:50:15.903</time></trkpt><trkpt lat="56.8331025" lon="53.1379541"><time>2024-11-11T18:50:20.863</time></trkpt><trkpt lat="56.8331041" lon="53.1378590"><time>2024-11-11T18:50:25.857</time></trkpt><trkpt lat="56.8331332" lon="53.1377879"><time>2024-11-11T18:50:31.860</time></trkpt><trkpt lat="56.8331854" lon="53.1377791"><time>2024-11-11T18:50:36.810</time></trkpt><trkpt lat="56.8332365" lon="53.1377837"><time>2024-11-11T18:50:41.807</time></trkpt><trkpt lat="56.8332906" lon="53.1377775"><time>2024-11-11T18:50:46.807</time></trkpt><trkpt lat="56.8333438" lon="53.1377679"><time>2024-11-11T18:50:51.857</time></trkpt><trkpt lat="56.8333960" lon="53.1377674"><time>2024-11-11T18:50:56.867</time></trkpt><trkpt lat="56.8334503" lon="53.1377588"><time>2024-11-11T18:51:01.817</time></trkpt><trkpt lat="56.8334985" lon="53.1377592"><time>2024-11-11T18:51:05.870</time></trkpt><trkpt lat="56.8335483" lon="53.1377390"><time>2024-11-11T18:51:09.863</time></trkpt><trkpt lat="56.8335950" lon="53.1377165"><time>2024-11-11T18:51:13.857</time></trkpt><trkpt lat="56.8336426" lon="53.1377007"><time>2024-11-11T18:51:17.850</time></trkpt><trkpt lat="56.8336884" lon="53.1376618"><time>2024-11-11T18:51:21.820</time></trkpt><trkpt lat="56.8337327" lon="53.1376453"><time>2024-11-11T18:51:25.813</time></trkpt><trkpt lat="56.8337845" lon="53.1376576"><time>2024-11-11T18:51:30.880</time></trkpt><trkpt lat="56.8337988" lon="53.1376801"><time>2024-11-11T18:51:32.127</time></trkpt><trkpt lat="56.8338514" lon="53.1376618"><time>2024-11-11T18:51:36.877</time></trkpt><trkpt lat="56.8338991" lon="53.1376456"><time>2024-11-11T18:51:41.823</time></trkpt><trkpt lat="56.8339479" lon="53.1376719"><time>2024-11-11T18:51:46.803</time></trkpt><trkpt lat="56.8339940" lon="53.1377078"><time>2024-11-11T18:51:50.860</time></trkpt><trkpt lat="56.8340419" lon="53.1377394"><time>2024-11-11T18:51:55.850</time></trkpt><trkpt lat="56.8340850" lon="53.1377673"><time>2024-11-11T18:51:59.893</time></trkpt><trkpt lat="56.8341339" lon="53.1377837"><time>2024-11-11T18:52:03.810</time></trkpt><trkpt lat="56.8341857" lon="53.1377715"><time>2024-11-11T18:52:07.860</time></trkpt><trkpt lat="56.8342279" lon="53.1377430"><time>2024-11-11T18:52:12.813</time></trkpt><trkpt lat="56.8342720" lon="53.1377013"><time>2024-11-11T18:52:17.813</time></trkpt><trkpt lat="56.8343204" lon="53.1376723"><time>2024-11-11T18:52:22.823</time></trkpt><trkpt lat="56.8343744" lon="53.1376644"><time>2024-11-11T18:52:27.810</time></trkpt><trkpt lat="56.8344290" lon="53.1376693"><time>2024-11-11T18:52:32.810</time></trkpt><trkpt lat="56.8344835" lon="53.1376556"><time>2024-11-11T18:52:37.817</time></trkpt><trkpt lat="56.8345304" lon="53.1376479"><time>2024-11-11T18:52:41.817</time></trkpt><trkpt lat="56.8345763" lon="53.1376465"><time>2024-11-11T18:52:45.820</time></trkpt><trkpt lat="56.8346238" lon="53.1376297"><time>2024-11-11T18:52:49.823</time></trkpt><trkpt lat="56.8346774" lon="53.1376173"><time>2024-11-11T18:52:54.837</time></trkpt><trkpt lat="56.8346874" lon="53.1376179"><time>2024-11-11T18:52:55.983</time></trkpt><trkpt lat="56.8347456" lon="53.1376103"><time>2024-11-11T18:53:00.803</time></trkpt><trkpt lat="56.8348006" lon="53.1376076"><time>2024-11-11T18:53:05.817</time></trkpt><trkpt lat="56.8348519" lon="53.1375974"><time>2024-11-11T18:53:10.820</time></trkpt><trkpt lat="56.8349039" lon="53.1375904"><time>2024-11-11T18:53:14.817</time></trkpt><trkpt lat="56.8349559" lon="53.1375832"><time>2024-11-11T18:53:18.807</time></trkpt><trkpt lat="56.8350028" lon="53.1375634"><time>2024-11-11T18:53:22.817</time></trkpt><trkpt lat="56.8350537" lon="53.1375592"><time>2024-11-11T18:53:28.897</time></trkpt><trkpt lat="56.8351067" lon="53.1375662"><time>2024-11-11T18:53:32.920</time></trkpt><trkpt lat="56.8351398" lon="53.1376130"><time>2024-11-11T18:53:34.140</time></trkpt><trkpt lat="56.8351954" lon="53.1375993"><time>2024-11-11T18:53:38.887</time></trkpt><trkpt lat="56.8352433" lon="53.1375716"><time>2024-11-11T18:53:43.860</time></trkpt><trkpt lat="56.8352814" lon="53.1375278"><time>2024-11-11T18:53:46.907</time></trkpt><trkpt lat="56.8353263" lon="53.1374881"><time>2024-11-11T18:53:50.893</time></trkpt><trkpt lat="56.8353721" lon="53.1374712"><time>2024-11-11T18:53:54.900</time></trkpt><trkpt lat="56.8354185" lon="53.1374787"><time>2024-11-11T18:54:03.813</time></trkpt><trkpt lat="56.8354185" lon="53.1374787"><time>2024-11-11T18:54:03.980</time></trkpt><trkpt lat="56.8354706" lon="53.1374692"><time>2024-11-11T18:54:08.837</time></trkpt><trkpt lat="56.8354743" lon="53.1374868"><time>2024-11-11T18:54:09.973</time></trkpt><trkpt lat="56.8355197" lon="53.1374948"><time>2024-11-11T18:54:13.813</time></trkpt><trkpt lat="56.8355634" lon="53.1374691"><time>2024-11-11T18:54:21.820</time></trkpt><trkpt lat="56.8356063" lon="53.1374933"><time>2024-11-11T18:55:28.810</time></trkpt><trkpt lat="56.8356517" lon="53.1375452"><time>2024-11-11T18:55:34.807</time></trkpt><trkpt lat="56.8356898" lon="53.1376185"><time>2024-11-11T18:55:39.800</time></trkpt><trkpt lat="56.8357308" lon="53.1376529"><time>2024-11-11T18:55:44.810</time></trkpt><trkpt lat="56.8357866" lon="53.1376724"><time>2024-11-11T18:55:49.807</time></trkpt><trkpt lat="56.8358387" lon="53.1376714"><time>2024-11-11T18:55:54.810</time></trkpt><trkpt lat="56.8358981" lon="53.1376535"><time>2024-11-11T18:55:59.810</time></trkpt><trkpt lat="56.8359467" lon="53.1376417"><time>2024-11-11T18:56:03.813</time></trkpt><trkpt lat="56.8359964" lon="53.1376897"><time>2024-11-11T18:56:08.883</time></trkpt><trkpt lat="56.8360386" lon="53.1377285"><time>2024-11-11T18:56:13.810</time></trkpt><trkpt lat="56.8360655" lon="53.1377941"><time>2024-11-11T18:56:17.810</time></trkpt><trkpt lat="56.8361003" lon="53.1378623"><time>2024-11-11T18:56:21.883</time></trkpt><trkpt lat="56.8361391" lon="53.1379192"><time>2024-11-11T18:56:25.810</time></trkpt><trkpt lat="56.8361817" lon="53.1379636"><time>2024-11-11T18:56:29.830</time></trkpt><trkpt lat="56.8362302" lon="53.1380006"><time>2024-11-11T18:56:33.813</time></trkpt><trkpt lat="56.8362762" lon="53.1380281"><time>2024-11-11T18:56:37.887</time></trkpt><trkpt lat="56.8363234" lon="53.1380412"><time>2024-11-11T18:56:41.830</time></trkpt><trkpt lat="56.8363752" lon="53.1380596"><time>2024-11-11T18:56:45.817</time></trkpt><trkpt lat="56.8364297" lon="53.1380702"><time>2024-11-11T18:56:50.813</time></trkpt><trkpt lat="56.8364741" lon="53.1380885"><time>2024-11-11T18:56:55.813</time></trkpt><trkpt lat="56.8365179" lon="53.1381164"><time>2024-11-11T18:56:59.817</time></trkpt><trkpt lat="56.8365540" lon="53.1381677"><time>2024-11-11T18:57:02.847</time></trkpt><trkpt lat="56.8365908" lon="53.1382259"><time>2024-11-11T18:57:07.857</time></trkpt><trkpt lat="56.8366139" lon="53.1383080"><time>2024-11-11T18:57:12.833</time></trkpt><trkpt lat="56.8366606" lon="53.1383569"><time>2024-11-11T18:57:19.847</time></trkpt><trkpt lat="56.8367011" lon="53.1384166"><time>2024-11-11T18:57:25.817</time></trkpt><trkpt lat="56.8367427" lon="53.1384693"><time>2024-11-11T18:57:31.807</time></trkpt><trkpt lat="56.8367863" lon="53.1384922"><time>2024-11-11T18:57:36.807</time></trkpt><trkpt lat="56.8368298" lon="53.1385142"><time>2024-11-11T18:57:41.813</time></trkpt><trkpt lat="56.8368738" lon="53.1385692"><time>2024-11-11T18:57:46.863</time></trkpt><trkpt lat="56.8369120" lon="53.1386374"><time>2024-11-11T18:57:50.810</time></trkpt><trkpt lat="56.8369336" lon="53.1387241"><time>2024-11-11T18:57:55.807</time></trkpt><trkpt lat="56.8369501" lon="53.1388123"><time>2024-11-11T18:57:59.843</time></trkpt><trkpt lat="56.8369657" lon="53.1389160"><time>2024-11-11T18:58:03.847</time></trkpt><trkpt lat="56.8369779" lon="53.1390077"><time>2024-11-11T18:58:06.813</time></trkpt><trkpt lat="56.8369877" lon="53.1391062"><time>2024-11-11T18:58:10.843</time></trkpt><trkpt lat="56.8369896" lon="53.1392058"><time>2024-11-11T18:58:14.813</time></trkpt><trkpt lat="56.8369909" lon="53.1393062"><time>2024-11-11T18:58:18.890</time></trkpt><trkpt lat="56.8369922" lon="53.1394074"><time>2024-11-11T18:58:22.817</time></trkpt><trkpt lat="56.8369941" lon="53.1395043"><time>2024-11-11T18:58:26.810</time></trkpt><trkpt lat="56.8369974" lon="53.1396027"><time>2024-11-11T18:58:30.807</time></trkpt><trkpt lat="56.8369905" lon="53.1396935"><time>2024-11-11T18:58:34.810</time></trkpt><trkpt lat="56.8369842" lon="53.1397906"><time>2024-11-11T18:58:38.810</time></trkpt><trkpt lat="56.8369796" lon="53.1398829"><time>2024-11-11T18:58:42.813</time></trkpt><trkpt lat="56.8369731" lon="53.1399806"><time>2024-11-11T18:58:46.923</time></trkpt><trkpt lat="56.8369608" lon="53.1400842"><time>2024-11-11T18:58:50.847</time></trkpt><trkpt lat="56.8369573" lon="53.1401773"><time>2024-11-11T18:58:54.827</time></trkpt><trkpt lat="56.8369377" lon="53.1402331"><time>2024-11-11T18:58:56.007</time></trkpt><trkpt lat="56.8369415" lon="53.1403197"><time>2024-11-11T18:59:01.803</time></trkpt><trkpt lat="56.8369515" lon="53.1404003"><time>2024-11-11T18:59:06.817</time></trkpt><trkpt lat="56.8369959" lon="53.1404175"><time>2024-11-11T18:59:10.810</time></trkpt><trkpt lat="56.8370415" lon="53.1404331"><time>2024-11-11T18:59:14.817</time></trkpt><trkpt lat="56.8370915" lon="53.1404339"><time>2024-11-11T18:59:18.810</time></trkpt><trkpt lat="56.8371418" lon="53.1404257"><time>2024-11-11T18:59:22.810</time></trkpt><trkpt lat="56.8371916" lon="53.1404232"><time>2024-11-11T18:59:26.813</time></trkpt><trkpt lat="56.8372463" lon="53.1404238"><time>2024-11-11T18:59:31.813</time></trkpt><trkpt lat="56.8372920" lon="53.1404227"><time>2024-11-11T18:59:35.810</time></trkpt><trkpt lat="56.8373396" lon="53.1404244"><time>2024-11-11T18:59:39.807</time></trkpt><trkpt lat="56.8373702" lon="53.1404910"><time>2024-11-11T18:59:43.813</time></trkpt><trkpt lat="56.8374026" lon="53.1405581"><time>2024-11-11T18:59:48.813</time></trkpt><trkpt lat="56.8374366" lon="53.1406242"><time>2024-11-11T18:59:53.810</time></trkpt><trkpt lat="56.8374402" lon="53.1407176"><time>2024-11-11T18:59:58.817</time></trkpt><trkpt lat="56.8374239" lon="53.1408127"><time>2024-11-11T19:00:03.810</time></trkpt><trkpt lat="56.8374249" lon="53.1408958"><time>2024-11-11T19:00:07.810</time></trkpt><trkpt lat="56.8374277" lon="53.1409785"><time>2024-11-11T19:00:11.813</time></trkpt><trkpt lat="56.8374344" lon="53.1410617"><time>2024-11-11T19:00:15.823</time></trkpt><trkpt lat="56.8374370" lon="53.1411475"><time>2024-11-11T19:00:19.810</time></trkpt><trkpt lat="56.8374399" lon="53.1412357"><time>2024-11-11T19:00:23.810</time></trkpt><trkpt lat="56.8374443" lon="53.1413235"><time>2024-11-11T19:00:27.810</time></trkpt><trkpt lat="56.8374437" lon="53.1414122"><time>2024-11-11T19:00:31.807</time></trkpt><trkpt lat="56.8374453" lon="53.1415032"><time>2024-11-11T19:00:35.810</time></trkpt><trkpt lat="56.8374460" lon="53.1415909"><time>2024-11-11T19:00:39.843</time></trkpt><trkpt lat="56.8373983" lon="53.1416655"><time>2024-11-11T19:00:40.990</time></trkpt><trkpt lat="56.8374075" lon="53.1417703"><time>2024-11-11T19:00:46.810</time></trkpt><trkpt lat="56.8374219" lon="53.1418626"><time>2024-11-11T19:00:52.810</time></trkpt><trkpt lat="56.8374239" lon="53.1419711"><time>2024-11-11T19:00:57.807</time></trkpt><trkpt lat="56.8374263" lon="53.1420538"><time>2024-11-11T19:01:01.817</time></trkpt><trkpt lat="56.8374206" lon="53.1421555"><time>2024-11-11T19:01:06.807</time></trkpt><trkpt lat="56.8374244" lon="53.1422578"><time>2024-11-11T19:01:11.813</time></trkpt><trkpt lat="56.8374357" lon="53.1423487"><time>2024-11-11T19:01:16.807</time></trkpt><trkpt lat="56.8374440" lon="53.1424412"><time>2024-11-11T19:01:21.900</time></trkpt><trkpt lat="56.8374530" lon="53.1425305"><time>2024-11-11T19:01:26.867</time></trkpt><trkpt lat="56.8374419" lon="53.1425403"><time>2024-11-11T19:01:28</time></trkpt><trkpt lat="56.8374518" lon="53.1426454"><time>2024-11-11T19:01:32.813</time></trkpt><trkpt lat="56.8374508" lon="53.1427326"><time>2024-11-11T19:01:36.813</time></trkpt><trkpt lat="56.8374550" lon="53.1428180"><time>2024-11-11T19:01:40.820</time></trkpt><trkpt lat="56.8374612" lon="53.1429122"><time>2024-11-11T19:01:44.853</time></trkpt><trkpt lat="56.8374810" lon="53.1429984"><time>2024-11-11T19:01:48.860</time></trkpt><trkpt lat="56.8375214" lon="53.1430360"><time>2024-11-11T19:01:52.837</time></trkpt><trkpt lat="56.8375734" lon="53.1430520"><time>2024-11-11T19:01:56.803</time></trkpt><trkpt lat="56.8376254" lon="53.1430288"><time>2024-11-11T19:02:01.837</time></trkpt><trkpt lat="56.8376254" lon="53.1430288"><time>2024-11-11T19:02:02.087</time></trkpt><trkpt lat="56.8376779" lon="53.1430140"><time>2024-11-11T19:02:06.837</time></trkpt><trkpt lat="56.8376920" lon="53.1429759"><time>2024-11-11T19:02:07.997</time></trkpt><trkpt lat="56.8377442" lon="53.1429790"><time>2024-11-11T19:02:11.807</time></trkpt><trkpt lat="56.8377918" lon="53.1429793"><time>2024-11-11T19:02:15.823</time></trkpt><trkpt lat="56.8378479" lon="53.1429819"><time>2024-11-11T19:02:20.827</time></trkpt><trkpt lat="56.8379010" lon="53.1429770"><time>2024-11-11T19:02:25.820</time></trkpt><trkpt lat="56.8379478" lon="53.1429561"><time>2024-11-11T19:02:29.817</time></trkpt><trkpt lat="56.8379304" lon="53.1428615"><time>2024-11-11T19:02:33.820</time></trkpt><trkpt lat="56.8379570" lon="53.1429443"><time>2024-11-11T19:03:31.820</time></trkpt><trkpt lat="56.8380078" lon="53.1429588"><time>2024-11-11T19:03:37.817</time></trkpt><trkpt lat="56.8380525" lon="53.1429300"><time>2024-11-11T19:03:41.887</time></trkpt><trkpt lat="56.8380534" lon="53.1428410"><time>2024-11-11T19:03:45.853</time></trkpt><trkpt lat="56.8380530" lon="53.1427408"><time>2024-11-11T19:03:50.847</time></trkpt><trkpt lat="56.8380563" lon="53.1426499"><time>2024-11-11T19:03:54.853</time></trkpt><trkpt lat="56.8380595" lon="53.1425605"><time>2024-11-11T19:03:58.877</time></trkpt><trkpt lat="56.8380721" lon="53.1424702"><time>2024-11-11T19:04:03.817</time></trkpt><trkpt lat="56.8380832" lon="53.1423799"><time>2024-11-11T19:04:08.827</time></trkpt><trkpt lat="56.8380908" lon="53.1422962"><time>2024-11-11T19:04:12.810</time></trkpt><trkpt lat="56.8380936" lon="53.1421975"><time>2024-11-11T19:04:17.883</time></trkpt><trkpt lat="56.8381010" lon="53.1420990"><time>2024-11-11T19:04:22.847</time></trkpt><trkpt lat="56.8381038" lon="53.1420077"><time>2024-11-11T19:04:26.903</time></trkpt><trkpt lat="56.8381031" lon="53.1419251"><time>2024-11-11T19:04:30.850</time></trkpt><trkpt lat="56.8380954" lon="53.1418408"><time>2024-11-11T19:04:34.860</time></trkpt><trkpt lat="56.8380914" lon="53.1417385"><time>2024-11-11T19:04:39.847</time></trkpt><trkpt lat="56.8380915" lon="53.1416556"><time>2024-11-11T19:04:43.860</time></trkpt><trkpt lat="56.8380916" lon="53.1415692"><time>2024-11-11T19:04:47.863</time></trkpt><trkpt lat="56.8380915" lon="53.1414844"><time>2024-11-11T19:04:51.860</time></trkpt><trkpt lat="56.8380928" lon="53.1413825"><time>2024-11-11T19:04:56.877</time></trkpt><trkpt lat="56.8380988" lon="53.1412822"><time>2024-11-11T19:05:01.887</time></trkpt><trkpt lat="56.8381012" lon="53.1411875"><time>2024-11-11T19:05:05.913</time></trkpt><trkpt lat="56.8381033" lon="53.1410991"><time>2024-11-11T19:05:09.890</time></trkpt><trkpt lat="56.8380983" lon="53.1410132"><time>2024-11-11T19:05:13.823</time></trkpt><trkpt lat="56.8381005" lon="53.1409114"><time>2024-11-11T19:05:18.810</time></trkpt><trkpt lat="56.8380953" lon="53.1408254"><time>2024-11-11T19:05:22.890</time></trkpt><trkpt lat="56.8380785" lon="53.1407380"><time>2024-11-11T19:05:27.860</time></trkpt><trkpt lat="56.8380788" lon="53.1406452"><time>2024-11-11T19:05:31.813</time></trkpt><trkpt lat="56.8380962" lon="53.1405605"><time>2024-11-11T19:05:35.903</time></trkpt><trkpt lat="56.8381159" lon="53.1404806"><time>2024-11-11T19:05:39.883</time></trkpt><trkpt lat="56.8381153" lon="53.1403876"><time>2024-11-11T19:05:43.903</time></trkpt><trkpt lat="56.8381105" lon="53.1402987"><time>2024-11-11T19:05:47.903</time></trkpt><trkpt lat="56.8381114" lon="53.1402097"><time>2024-11-11T19:05:52.813</time></trkpt><trkpt lat="56.8381158" lon="53.1401220"><time>2024-11-11T19:05:57.850</time></trkpt><trkpt lat="56.8381165" lon="53.1400323"><time>2024-11-11T19:06:01.867</time></trkpt><trkpt lat="56.8381256" lon="53.1399489"><time>2024-11-11T19:06:05.857</time></trkpt><trkpt lat="56.8381359" lon="53.1398678"><time>2024-11-11T19:06:09.867</time></trkpt><trkpt lat="56.8381288" lon="53.1397804"><time>2024-11-11T19:06:13.817</time></trkpt><trkpt lat="56.8381149" lon="53.1396989"><time>2024-11-11T19:06:17.817</time></trkpt><trkpt lat="56.8380885" lon="53.1396091"><time>2024-11-11T19:06:22.847</time></trkpt><trkpt lat="56.8380535" lon="53.1395471"><time>2024-11-11T19:06:26.847</time></trkpt><trkpt lat="56.8380164" lon="53.1394966"><time>2024-11-11T19:06:30.847</time></trkpt><trkpt lat="56.8379997" lon="53.1394109"><time>2024-11-11T19:06:35.817</time></trkpt><trkpt lat="56.8379937" lon="53.1393140"><time>2024-11-11T19:06:40.857</time></trkpt><trkpt lat="56.8379906" lon="53.1392120"><time>2024-11-11T19:06:45.893</time></trkpt><trkpt lat="56.8379798" lon="53.1391321"><time>2024-11-11T19:06:49.890</time></trkpt><trkpt lat="56.8379693" lon="53.1390479"><time>2024-11-11T19:06:53.817</time></trkpt><trkpt lat="56.8379667" lon="53.1389631"><time>2024-11-11T19:06:57.820</time></trkpt><trkpt lat="56.8379623" lon="53.1388679"><time>2024-11-11T19:07:02.817</time></trkpt><trkpt lat="56.8379420" lon="53.1387732"><time>2024-11-11T19:07:07.897</time></trkpt><trkpt lat="56.8379471" lon="53.1386821"><time>2024-11-11T19:07:11.900</time></trkpt><trkpt lat="56.8379460" lon="53.1385864"><time>2024-11-11T19:07:16.860</time></trkpt><trkpt lat="56.8379480" lon="53.1384983"><time>2024-11-11T19:07:20.897</time></trkpt><trkpt lat="56.8379498" lon="53.1384102"><time>2024-11-11T19:07:24.810</time></trkpt><trkpt lat="56.8379684" lon="53.1383140"><time>2024-11-11T19:07:28.883</time></trkpt><trkpt lat="56.8379800" lon="53.1382165"><time>2024-11-11T19:07:32.813</time></trkpt><trkpt lat="56.8379889" lon="53.1381213"><time>2024-11-11T19:07:36.897</time></trkpt><trkpt lat="56.8379892" lon="53.1380387"><time>2024-11-11T19:07:40.847</time></trkpt><trkpt lat="56.8379887" lon="53.1379390"><time>2024-11-11T19:07:45.850</time></trkpt><trkpt lat="56.8379901" lon="53.1378403"><time>2024-11-11T19:07:50.910</time></trkpt><trkpt lat="56.8379933" lon="53.1377584"><time>2024-11-11T19:07:54.860</time></trkpt><trkpt lat="56.8379956" lon="53.1376703"><time>2024-11-11T19:07:58.867</time></trkpt><trkpt lat="56.8379955" lon="53.1375779"><time>2024-11-11T19:08:02.817</time></trkpt><trkpt lat="56.8379972" lon="53.1374940"><time>2024-11-11T19:08:06.840</time></trkpt><trkpt lat="56.8380005" lon="53.1374105"><time>2024-11-11T19:08:10.850</time></trkpt><trkpt lat="56.8380006" lon="53.1373272"><time>2024-11-11T19:08:14.857</time></trkpt><trkpt lat="56.8379936" lon="53.1372359"><time>2024-11-11T19:08:18.917</time></trkpt><trkpt lat="56.8379883" lon="53.1371418"><time>2024-11-11T19:08:22.873</time></trkpt><trkpt lat="56.8379803" lon="53.1370373"><time>2024-11-11T19:08:26.910</time></trkpt><trkpt lat="56.8379744" lon="53.1369547"><time>2024-11-11T19:08:29.867</time></trkpt><trkpt lat="56.8379715" lon="53.1368517"><time>2024-11-11T19:08:33.827</time></trkpt><trkpt lat="56.8379576" lon="53.1367700"><time>2024-11-11T19:08:37.857</time></trkpt><trkpt lat="56.8379495" lon="53.1366870"><time>2024-11-11T19:08:41.817</time></trkpt><trkpt lat="56.8379453" lon="53.1366044"><time>2024-11-11T19:08:45.857</time></trkpt><trkpt lat="56.8379382" lon="53.1365158"><time>2024-11-11T19:08:49.863</time></trkpt><trkpt lat="56.8379387" lon="53.1364179"><time>2024-11-11T19:08:53.820</time></trkpt><trkpt lat="56.8379426" lon="53.1363245"><time>2024-11-11T19:08:57.830</time></trkpt><trkpt lat="56.8379448" lon="53.1362336"><time>2024-11-11T19:09:01.857</time></trkpt><trkpt lat="56.8379470" lon="53.1361337"><time>2024-11-11T19:09:06.913</time></trkpt><trkpt lat="56.8379418" lon="53.1360491"><time>2024-11-11T19:09:10.843</time></trkpt><trkpt lat="56.8379674" lon="53.1360374"><time>2024-11-11T19:09:12.080</time></trkpt><trkpt lat="56.8379643" lon="53.1359530"><time>2024-11-11T19:09:15.897</time></trkpt><trkpt lat="56.8379688" lon="53.1358652"><time>2024-11-11T19:09:19.903</time></trkpt><trkpt lat="56.8379986" lon="53.1358027"><time>2024-11-11T19:09:23.853</time></trkpt><trkpt lat="56.8380139" lon="53.1357176"><time>2024-11-11T19:09:27.853</time></trkpt><trkpt lat="56.8380024" lon="53.1356383"><time>2024-11-11T19:09:30.850</time></trkpt><trkpt lat="56.8379878" lon="53.1355603"><time>2024-11-11T19:09:33.830</time></trkpt><trkpt lat="56.8379776" lon="53.1354593"><time>2024-11-11T19:09:37.860</time></trkpt><trkpt lat="56.8379704" lon="53.1353611"><time>2024-11-11T19:09:41.850</time></trkpt><trkpt lat="56.8379696" lon="53.1352725"><time>2024-11-11T19:09:45.870</time></trkpt><trkpt lat="56.8379677" lon="53.1351871"><time>2024-11-11T19:09:49.810</time></trkpt><trkpt lat="56.8379676" lon="53.1350855"><time>2024-11-11T19:09:54.857</time></trkpt><trkpt lat="56.8379456" lon="53.1351595"><time>2024-11-11T19:10:04.817</time></trkpt><trkpt lat="56.8379196" lon="53.1350919"><time>2024-11-11T19:10:58.817</time></trkpt><trkpt lat="56.8378709" lon="53.1350572"><time>2024-11-11T19:11:03.813</time></trkpt><trkpt lat="56.8378253" lon="53.1350493"><time>2024-11-11T19:11:07.813</time></trkpt><trkpt lat="56.8377768" lon="53.1350454"><time>2024-11-11T19:11:11.860</time></trkpt><trkpt lat="56.8377318" lon="53.1350459"><time>2024-11-11T19:11:15.913</time></trkpt><trkpt lat="56.8376872" lon="53.1350351"><time>2024-11-11T19:11:19.907</time></trkpt><trkpt lat="56.8376384" lon="53.1350111"><time>2024-11-11T19:11:23.917</time></trkpt><trkpt lat="56.8376052" lon="53.1349448"><time>2024-11-11T19:11:26.860</time></trkpt><trkpt lat="56.8375649" lon="53.1349083"><time>2024-11-11T19:11:30.877</time></trkpt><trkpt lat="56.8375174" lon="53.1349005"><time>2024-11-11T19:11:35.867</time></trkpt><trkpt lat="56.8374685" lon="53.1348861"><time>2024-11-11T19:11:39.867</time></trkpt><trkpt lat="56.8374165" lon="53.1348666"><time>2024-11-11T19:11:43.867</time></trkpt><trkpt lat="56.8373678" lon="53.1348345"><time>2024-11-11T19:11:48.910</time></trkpt><trkpt lat="56.8373410" lon="53.1347609"><time>2024-11-11T19:11:53.827</time></trkpt><trkpt lat="56.8373215" lon="53.1346790"><time>2024-11-11T19:11:58.900</time></trkpt><trkpt lat="56.8373203" lon="53.1345932"><time>2024-11-11T19:12:02.817</time></trkpt><trkpt lat="56.8373232" lon="53.1345106"><time>2024-11-11T19:12:06.900</time></trkpt><trkpt lat="56.8373209" lon="53.1344253"><time>2024-11-11T19:12:10.907</time></trkpt><trkpt lat="56.8373257" lon="53.1343238"><time>2024-11-11T19:12:15.820</time></trkpt><trkpt lat="56.8373301" lon="53.1342385"><time>2024-11-11T19:12:19.893</time></trkpt><trkpt lat="56.8373390" lon="53.1341568"><time>2024-11-11T19:12:23.920</time></trkpt><trkpt lat="56.8374106" lon="53.1341383"><time>2024-11-11T19:12:25.083</time></trkpt><trkpt lat="56.8373857" lon="53.1340556"><time>2024-11-11T19:12:29.873</time></trkpt><trkpt lat="56.8373894" lon="53.1339618"><time>2024-11-11T19:12:34.850</time></trkpt><trkpt lat="56.8373737" lon="53.1338728"><time>2024-11-11T19:12:38.857</time></trkpt><trkpt lat="56.8373563" lon="53.1337827"><time>2024-11-11T19:12:42.850</time></trkpt><trkpt lat="56.8373388" lon="53.1337066"><time>2024-11-11T19:12:45.820</time></trkpt><trkpt lat="56.8373194" lon="53.1336180"><time>2024-11-11T19:12:49.820</time></trkpt><trkpt lat="56.8372963" lon="53.1335449"><time>2024-11-11T19:12:52.817</time></trkpt><trkpt lat="56.8372877" lon="53.1334464"><time>2024-11-11T19:12:56.830</time></trkpt><trkpt lat="56.8373024" lon="53.1333616"><time>2024-11-11T19:13:00.807</time></trkpt><trkpt lat="56.8373318" lon="53.1332883"><time>2024-11-11T19:13:05.813</time></trkpt><trkpt lat="56.8373707" lon="53.1332424"><time>2024-11-11T19:13:10.817</time></trkpt><trkpt lat="56.8374126" lon="53.1331856"><time>2024-11-11T19:13:15.890</time></trkpt><trkpt lat="56.8374306" lon="53.1331875"><time>2024-11-11T19:13:17.853</time></trkpt><trkpt lat="56.8374643" lon="53.1331176"><time>2024-11-11T19:13:21.820</time></trkpt><trkpt lat="56.8375064" lon="53.1330816"><time>2024-11-11T19:13:26.820</time></trkpt><trkpt lat="56.8338026" lon="53.1290238"><time>2024-11-11T19:33:17.627</time></trkpt><trkpt lat="56.8340162" lon="53.1289758"><time>2024-11-11T19:33:20.597</time></trkpt><trkpt lat="56.8340863" lon="53.1290042"><time>2024-11-11T19:33:21.617</time></trkpt><trkpt lat="56.8346014" lon="53.1292885"><time>2024-11-11T19:33:25.607</time></trkpt><trkpt lat="56.8344319" lon="53.1291963"><time>2024-11-11T19:33:26.650</time></trkpt><trkpt lat="56.8344319" lon="53.1291963"><time>2024-11-11T19:33:27.103</time></trkpt><trkpt lat="56.8342697" lon="53.1290626"><time>2024-11-11T19:33:27.630</time></trkpt><trkpt lat="56.8340521" lon="53.1292311"><time>2024-11-11T19:33:31.587</time></trkpt><trkpt lat="56.8339334" lon="53.1288442"><time>2024-11-11T19:33:32.587</time></trkpt><trkpt lat="56.8338797" lon="53.1288483"><time>2024-11-11T19:33:33.587</time></trkpt><trkpt lat="56.8339324" lon="53.1290390"><time>2024-11-11T19:33:34.583</time></trkpt><trkpt lat="56.8339009" lon="53.1291803"><time>2024-11-11T19:33:35.587</time></trkpt><trkpt lat="56.8331191" lon="53.1290980"><time>2024-11-11T19:33:36.607</time></trkpt><trkpt lat="56.8338839" lon="53.1295970"><time>2024-11-11T19:33:40.607</time></trkpt><trkpt lat="56.8337854" lon="53.1294411"><time>2024-11-11T19:33:41.603</time></trkpt><trkpt lat="56.8337501" lon="53.1295365"><time>2024-11-11T19:33:42.587</time></trkpt><trkpt lat="56.8339222" lon="53.1295917"><time>2024-11-11T19:33:44.580</time></trkpt><trkpt lat="56.8337757" lon="53.1292439"><time>2024-11-11T19:33:48.607</time></trkpt><trkpt lat="56.8339157" lon="53.1293104"><time>2024-11-11T19:33:49.183</time></trkpt><trkpt lat="56.8339190" lon="53.1293096"><time>2024-11-11T19:33:50.317</time></trkpt><trkpt lat="56.8339738" lon="53.1293557"><time>2024-11-11T19:33:52.163</time></trkpt><trkpt lat="56.8340439" lon="53.1293833"><time>2024-11-11T19:33:53.197</time></trkpt><trkpt lat="56.8340974" lon="53.1293981"><time>2024-11-11T19:33:54.193</time></trkpt><trkpt lat="56.8341503" lon="53.1293876"><time>2024-11-11T19:33:55.197</time></trkpt><trkpt lat="56.8342165" lon="53.1293899"><time>2024-11-11T19:33:57.167</time></trkpt><trkpt lat="56.8342617" lon="53.1294296"><time>2024-11-11T19:34:02.193</time></trkpt><trkpt lat="56.8343098" lon="53.1294455"><time>2024-11-11T19:34:12.190</time></trkpt><trkpt lat="56.8343544" lon="53.1294875"><time>2024-11-11T19:34:27.167</time></trkpt><trkpt lat="56.8343991" lon="53.1295189"><time>2024-11-11T19:34:33.167</time></trkpt><trkpt lat="56.8344555" lon="53.1295163"><time>2024-11-11T19:34:37.163</time></trkpt><trkpt lat="56.8345092" lon="53.1295024"><time>2024-11-11T19:34:43.167</time></trkpt><trkpt lat="56.8345448" lon="53.1294493"><time>2024-11-11T19:34:50.167</time></trkpt><trkpt lat="56.8344994" lon="53.1294572"><time>2024-11-11T19:35:07.167</time></trkpt><trkpt lat="56.8344541" lon="53.1294569"><time>2024-11-11T19:35:11.160</time></trkpt><trkpt lat="56.8344184" lon="53.1295087"><time>2024-11-11T19:35:18.163</time></trkpt><trkpt lat="56.8343817" lon="53.1295643"><time>2024-11-11T19:35:57.167</time></trkpt><trkpt lat="56.8341995" lon="53.1297969"><time>2024-11-11T19:36:00.197</time></trkpt><trkpt lat="56.8341626" lon="53.1297949"><time>2024-11-11T19:36:01.167</time></trkpt><trkpt lat="56.8341130" lon="53.1298112"><time>2024-11-11T19:36:03.160</time></trkpt><trkpt lat="56.8340660" lon="53.1298304"><time>2024-11-11T19:36:05.167</time></trkpt><trkpt lat="56.8340151" lon="53.1298452"><time>2024-11-11T19:36:07.167</time></trkpt><trkpt lat="56.8339537" lon="53.1298626"><time>2024-11-11T19:36:10.160</time></trkpt><trkpt lat="56.8339025" lon="53.1298534"><time>2024-11-11T19:36:14.163</time></trkpt><trkpt lat="56.8338761" lon="53.1297869"><time>2024-11-11T19:36:17.167</time></trkpt><trkpt lat="56.8338542" lon="53.1296415"><time>2024-11-11T19:36:19.170</time></trkpt><trkpt lat="56.8338463" lon="53.1294687"><time>2024-11-11T19:36:21.167</time></trkpt><trkpt lat="56.8338397" lon="53.1293349"><time>2024-11-11T19:36:23.170</time></trkpt><trkpt lat="56.8338414" lon="53.1292003"><time>2024-11-11T19:36:25.197</time></trkpt><trkpt lat="56.8338423" lon="53.1291262"><time>2024-11-11T19:36:26.173</time></trkpt><trkpt lat="56.8338404" lon="53.1289935"><time>2024-11-11T19:36:28.167</time></trkpt><trkpt lat="56.8338338" lon="53.1288623"><time>2024-11-11T19:36:30.173</time></trkpt><trkpt lat="56.8338330" lon="53.1287366"><time>2024-11-11T19:36:32.170</time></trkpt><trkpt lat="56.8338316" lon="53.1286075"><time>2024-11-11T19:36:34.173</time></trkpt><trkpt lat="56.8338319" lon="53.1284707"><time>2024-11-11T19:36:36.167</time></trkpt><trkpt lat="56.8338168" lon="53.1283131"><time>2024-11-11T19:36:38.163</time></trkpt><trkpt lat="56.8338159" lon="53.1281670"><time>2024-11-11T19:36:40.167</time></trkpt><trkpt lat="56.8337866" lon="53.1280360"><time>2024-11-11T19:36:42.173</time></trkpt><trkpt lat="56.8337814" lon="53.1279127"><time>2024-11-11T19:36:44.167</time></trkpt><trkpt lat="56.8337790" lon="53.1278158"><time>2024-11-11T19:36:46.167</time></trkpt><trkpt lat="56.8337734" lon="53.1277105"><time>2024-11-11T19:36:48.170</time></trkpt><trkpt lat="56.8337506" lon="53.1275685"><time>2024-11-11T19:36:50.167</time></trkpt><trkpt lat="56.8337684" lon="53.1274022"><time>2024-11-11T19:36:52.163</time></trkpt><trkpt lat="56.8337801" lon="53.1272576"><time>2024-11-11T19:36:54.167</time></trkpt><trkpt lat="56.8338114" lon="53.1271808"><time>2024-11-11T19:36:56.167</time></trkpt><trkpt lat="56.8338680" lon="53.1271275"><time>2024-11-11T19:36:58.167</time></trkpt><trkpt lat="56.8339483" lon="53.1271319"><time>2024-11-11T19:37:00.167</time></trkpt><trkpt lat="56.8340426" lon="53.1271099"><time>2024-11-11T19:37:02.187</time></trkpt><trkpt lat="56.8341316" lon="53.1271030"><time>2024-11-11T19:37:04.170</time></trkpt><trkpt lat="56.8341898" lon="53.1270796"><time>2024-11-11T19:37:05.187</time></trkpt><trkpt lat="56.8342380" lon="53.1270839"><time>2024-11-11T19:37:06.173</time></trkpt><trkpt lat="56.8343371" lon="53.1270923"><time>2024-11-11T19:37:08.183</time></trkpt><trkpt lat="56.8343996" lon="53.1271199"><time>2024-11-11T19:37:10.173</time></trkpt><trkpt lat="56.8344663" lon="53.1271101"><time>2024-11-11T19:37:11.173</time></trkpt><trkpt lat="56.8345234" lon="53.1271006"><time>2024-11-11T19:37:12.167</time></trkpt><trkpt lat="56.8345757" lon="53.1270973"><time>2024-11-11T19:37:13.173</time></trkpt><trkpt lat="56.8346676" lon="53.1271222"><time>2024-11-11T19:37:15.197</time></trkpt><trkpt lat="56.8347246" lon="53.1271208"><time>2024-11-11T19:37:16.167</time></trkpt><trkpt lat="56.8347745" lon="53.1271185"><time>2024-11-11T19:37:17.167</time></trkpt><trkpt lat="56.8348401" lon="53.1271036"><time>2024-11-11T19:37:18.170</time></trkpt><trkpt lat="56.8349322" lon="53.1271165"><time>2024-11-11T19:37:20.203</time></trkpt><trkpt lat="56.8349802" lon="53.1271198"><time>2024-11-11T19:37:21.167</time></trkpt><trkpt lat="56.8350594" lon="53.1271419"><time>2024-11-11T19:37:23.170</time></trkpt><trkpt lat="56.8351213" lon="53.1271451"><time>2024-11-11T19:37:25.170</time></trkpt><trkpt lat="56.8351695" lon="53.1271438"><time>2024-11-11T19:37:27.160</time></trkpt><trkpt lat="56.8352219" lon="53.1271259"><time>2024-11-11T19:37:29.170</time></trkpt><trkpt lat="56.8352739" lon="53.1270831"><time>2024-11-11T19:37:32.170</time></trkpt><trkpt lat="56.8352904" lon="53.1270038"><time>2024-11-11T19:37:55.170</time></trkpt></trkseg></trk></gpx>